Observation data for Endee on 11/11/2019      Previous  Date       Current Mesonet Observations  Soil Data  Daily Summary Page  Observations in Plain Language
KEN1 110600Z 01007KT 05/M03 A2995 RMK A01 T00451028  RH  059%=      5-min Rain = 0
KEN1 110601Z 01006KT 05/M03 A2995 RMK A01 T00451028  RH  059%=      5-min Rain = 0
KEN1 110602Z 01006KT 05/M03 A2995 RMK A01 T00451028  RH  059%=      5-min Rain = 0
KEN1 110603Z 01006KT 05/M03 A2995 RMK A01 T00451028  RH  059%=      5-min Rain = 0
KEN1 110604Z 01006KT 05/M03 A2995 RMK A01 T00451028  RH  059%=      5-min Rain = 0
KEN1 110605Z 01006KT 05/M03 A2995 RMK A01 T00461027  RH  059%=      5-min Rain = 0
KEN1 110606Z 01007KT 05/M03 A2995 RMK A01 T00451027  RH  059%=      5-min Rain = 0
KEN1 110607Z 01007KT 05/M03 A2995 RMK A01 T00451027  RH  059%=      5-min Rain = 0
KEN1 110608Z 01007KT 05/M03 A2995 RMK A01 T00451027  RH  060%=      5-min Rain = 0
KEN1 110609Z 01008KT 04/M03 A2995 RMK A01 T00441027  RH  060%=      5-min Rain = 0
KEN1 110610Z 01008KT 04/M03 A2995 RMK A01 T00441027  RH  060%=      5-min Rain = 0
KEN1 110611Z 01008KT 04/M03 A2995 RMK A01 T00441027  RH  060%=      5-min Rain = 0
KEN1 110612Z 01008KT 04/M03 A2995 RMK A01 T00441027  RH  060%=      5-min Rain = 0
KEN1 110613Z 01007KT 04/M03 A2995 RMK A01 T00441027  RH  060%=      5-min Rain = 0
KEN1 110614Z 01007KT 04/M03 A2995 RMK A01 T00441027  RH  060%=      5-min Rain = 0
KEN1 110615Z 01006KT 04/M03 A2995 RMK A01 T00441027  RH  060%=      5-min Rain = 0
KEN1 110616Z 01006KT 05/M03 A2995 RMK A01 T00451028  RH  059%=      5-min Rain = 0
KEN1 110617Z 01006KT 05/M03 A2995 RMK A01 T00461027  RH  059%=      5-min Rain = 0
KEN1 110618Z 01006KT 05/M03 A2995 RMK A01 T00461027  RH  059%=      5-min Rain = 0
KEN1 110619Z 01005KT 05/M03 A2995 RMK A01 T00461027  RH  059%=      5-min Rain = 0
KEN1 110620Z 01005KT 05/M03 A2995 RMK A01 T00461028  RH  059%=      5-min Rain = 0
KEN1 110621Z 01005KT 05/M03 A2995 RMK A01 T00461028  RH  059%=      5-min Rain = 0
KEN1 110622Z 01005KT 05/M03 A2996 RMK A01 T00471028  RH  058%=      5-min Rain = 0
KEN1 110623Z 01005KT 05/M03 A2996 RMK A01 T00471028  RH  058%=      5-min Rain = 0
KEN1 110624Z 01005KT 05/M03 A2996 RMK A01 T00481028  RH  058%=      5-min Rain = 0
KEN1 110625Z 01005KT 05/M03 A2996 RMK A01 T00481029  RH  057%=      5-min Rain = 0
KEN1 110626Z 01005KT 05/M03 A2996 RMK A01 T00491029  RH  057%=      5-min Rain = 0
KEN1 110627Z 01004KT 05/M03 A2996 RMK A01 T00491029  RH  057%=      5-min Rain = 0
KEN1 110628Z 01004KT 05/M03 A2996 RMK A01 T00491029  RH  057%=      5-min Rain = 0
KEN1 110629Z 01004KT 05/M03 A2996 RMK A01 T00501030  RH  057%=      5-min Rain = 0
KEN1 110630Z 01004KT 05/M03 A2996 RMK A01 T00501030  RH  056%=      5-min Rain = 0
KEN1 110631Z 01004KT 05/M03 A2996 RMK A01 T00501030  RH  056%=      5-min Rain = 0
KEN1 110632Z 01004KT 05/M03 A2996 RMK A01 T00501030  RH  056%=      5-min Rain = 0
KEN1 110633Z 01004KT 05/M03 A2996 RMK A01 T00501030  RH  056%=      5-min Rain = 0
KEN1 110634Z 00004KT 05/M03 A2997 RMK A01 T00501030  RH  056%=      5-min Rain = 0
KEN1 110635Z 00004KT 05/M03 A2997 RMK A01 T00501030  RH  056%=      5-min Rain = 0
KEN1 110636Z 01004KT 05/M03 A2997 RMK A01 T00501030  RH  056%=      5-min Rain = 0
KEN1 110637Z 00004KT 05/M03 A2997 RMK A01 T00501030  RH  056%=      5-min Rain = 0
KEN1 110638Z 36004KT 05/M03 A2997 RMK A01 T00501031  RH  056%=      5-min Rain = 0
KEN1 110639Z 35004KT 05/M03 A2997 RMK A01 T00501031  RH  056%=      5-min Rain = 0
KEN1 110640Z 36004KT 05/M03 A2997 RMK A01 T00501031  RH  056%=      5-min Rain = 0
KEN1 110641Z 00004KT 05/M03 A2997 RMK A01 T00501031  RH  056%=      5-min Rain = 0
KEN1 110642Z 00004KT 05/M03 A2997 RMK A01 T00501031  RH  056%=      5-min Rain = 0
KEN1 110643Z 00003KT 05/M03 A2997 RMK A01 T00501031  RH  056%=      5-min Rain = 0
KEN1 110644Z 00003KT 05/M03 A2997 RMK A01 T00501031  RH  056%=      5-min Rain = 0
KEN1 110645Z 00003KT 05/M03 A2997 RMK A01 T00501032  RH  056%=      5-min Rain = 0
KEN1 110646Z 01004KT 05/M03 A2998 RMK A01 T00491032  RH  056%=      5-min Rain = 0
KEN1 110647Z 00003KT 05/M03 A2998 RMK A01 T00491031  RH  056%=      5-min Rain = 0
KEN1 110648Z 00004KT 05/M03 A2998 RMK A01 T00481032  RH  056%=      5-min Rain = 0
KEN1 110649Z 00003KT 05/M03 A2998 RMK A01 T00471032  RH  057%=      5-min Rain = 0
KEN1 110650Z 00004KT 05/M03 A2998 RMK A01 T00461032  RH  057%=      5-min Rain = 0
KEN1 110651Z 00005KT 05/M03 A2998 RMK A01 T00461032  RH  057%=      5-min Rain = 0
KEN1 110652Z 00005KT 05/M03 A2998 RMK A01 T00451032  RH  057%=      5-min Rain = 0
KEN1 110653Z 00005KT 05/M03 A2998 RMK A01 T00451032  RH  057%=      5-min Rain = 0
KEN1 110654Z 36006KT 04/M03 A2998 RMK A01 T00431033  RH  058%=      5-min Rain = 0
KEN1 110655Z 35007KT 04/M03 A2998 RMK A01 T00401034  RH  058%=      5-min Rain = 0
KEN1 110656Z 35007KT 04/M03 A2998 RMK A01 T00371034  RH  059%=      5-min Rain = 0
KEN1 110657Z 35007KT 04/M03 A2998 RMK A01 T00361034  RH  060%=      5-min Rain = 0
KEN1 110658Z 35007KT 04/M03 A2998 RMK A01 T00351033  RH  061%=      5-min Rain = 0
KEN1 110659Z 35007KT 04/M03 A2998 RMK A01 T00351032  RH  062%=      5-min Rain = 0
KEN1 110700Z 35007KT 04/M03 A2998 RMK A01 T00351031  RH  062%=      5-min Rain = 0
KEN1 110701Z 35008KT 04/M03 A2998 RMK A01 T00351031  RH  062%=      5-min Rain = 0
KEN1 110702Z 35008KT 04/M03 A2998 RMK A01 T00371029  RH  062%=      5-min Rain = 0
KEN1 110703Z 35008KT 04/M03 A2998 RMK A01 T00381029  RH  062%=      5-min Rain = 0
KEN1 110704Z 36007KT 04/M03 A2998 RMK A01 T00401028  RH  061%=      5-min Rain = 0
KEN1 110705Z 00009KT 04/M03 A2998 RMK A01 T00431027  RH  060%=      5-min Rain = 0
KEN1 110706Z 01009KT 05/M03 A2998 RMK A01 T00471027  RH  059%=      5-min Rain = 0
KEN1 110707Z 01008KT 05/M03 A2998 RMK A01 T00501027  RH  058%=      5-min Rain = 0
KEN1 110708Z 01009KT 05/M03 A2999 RMK A01 T00511027  RH  057%=      5-min Rain = 0
KEN1 110709Z 01008KT 05/M03 A2999 RMK A01 T00521027  RH  056%=      5-min Rain = 0
KEN1 110710Z 00009KT 05/M03 A2999 RMK A01 T00531027  RH  056%=      5-min Rain = 0
KEN1 110711Z 00009KT 05/M03 A2999 RMK A01 T00521027  RH  056%=      5-min Rain = 0
KEN1 110712Z 00009KT 05/M03 A2999 RMK A01 T00521028  RH  056%=      5-min Rain = 0
KEN1 110713Z 00009KT 05/M03 A2999 RMK A01 T00511028  RH  056%=      5-min Rain = 0
KEN1 110714Z 01009KT 05/M03 A2999 RMK A01 T00501029  RH  057%=      5-min Rain = 0
KEN1 110715Z 01009KT 05/M03 A2999 RMK A01 T00481030  RH  057%=      5-min Rain = 0
KEN1 110716Z 00009KT 05/M03 A2999 RMK A01 T00471029  RH  058%=      5-min Rain = 0
KEN1 110717Z 00009KT 05/M03 A2999 RMK A01 T00451029  RH  058%=      5-min Rain = 0
KEN1 110718Z 00009KT 04/M03 A2999 RMK A01 T00441029  RH  059%=      5-min Rain = 0
KEN1 110719Z 00009KT 04/M03 A2999 RMK A01 T00431030  RH  059%=      5-min Rain = 0
KEN1 110720Z 01009KT 04/M03 A2999 RMK A01 T00431030  RH  059%=      5-min Rain = 0
KEN1 110721Z 01009KT 04/M03 A2999 RMK A01 T00431030  RH  059%=      5-min Rain = 0
KEN1 110722Z 01010KT 04/M03 A2999 RMK A01 T00431030  RH  059%=      5-min Rain = 0
KEN1 110723Z 01010KT 04/M03 A2999 RMK A01 T00431030  RH  059%=      5-min Rain = 0
KEN1 110724Z 01010KT 04/M03 A2999 RMK A01 T00431029  RH  059%=      5-min Rain = 0
KEN1 110725Z 01009KT 04/M03 A2999 RMK A01 T00441029  RH  059%=      5-min Rain = 0
KEN1 110726Z 01009KT 04/M03 A2999 RMK A01 T00431029  RH  059%=      5-min Rain = 0
KEN1 110727Z 01009KT 04/M03 A2999 RMK A01 T00431029  RH  060%=      5-min Rain = 0
KEN1 110728Z 01009KT 04/M03 A2999 RMK A01 T00431029  RH  060%=      5-min Rain = 0
KEN1 110729Z 01010KT 04/M03 A30 RMK A01 T00431028  RH  060%=      5-min Rain = 0
KEN1 110730Z 01012G17KT 04/M03 A30 RMK A01 T00441027  RH  060%=      5-min Rain = 0
KEN1 110731Z 01013KT 05/M02 A30 RMK A01 T00471024  RH  060%=      5-min Rain = 0
KEN1 110732Z 02013KT 05/M02 A30 RMK A01 T00491022  RH  060%=      5-min Rain = 0
KEN1 110733Z 01012KT 05/M02 A30 RMK A01 T00491022  RH  060%=      5-min Rain = 0
KEN1 110734Z 02011KT 05/M02 A30 RMK A01 T00501021  RH  060%=      5-min Rain = 0
KEN1 110735Z 01011KT 05/M02 A30 RMK A01 T00501021  RH  060%=      5-min Rain = 0
KEN1 110736Z 01011KT 05/M02 A30 RMK A01 T00501020  RH  060%=      5-min Rain = 0
KEN1 110737Z 01010KT 05/M02 A30 RMK A01 T00491021  RH  061%=      5-min Rain = 0
KEN1 110738Z 01010KT 05/M02 A30 RMK A01 T00491021  RH  061%=      5-min Rain = 0
KEN1 110739Z 01009KT 05/M02 A30 RMK A01 T00481021  RH  061%=      5-min Rain = 0
KEN1 110740Z 00009KT 05/M02 A30 RMK A01 T00461022  RH  061%=      5-min Rain = 0
KEN1 110741Z 01009KT 05/M02 A3001 RMK A01 T00451023  RH  061%=      5-min Rain = 0
KEN1 110742Z 01010KT 05/M02 A3001 RMK A01 T00451024  RH  061%=      5-min Rain = 0
KEN1 110743Z 01009KT 05/M02 A3001 RMK A01 T00451024  RH  061%=      5-min Rain = 0
KEN1 110744Z 01009KT 04/M03 A3001 RMK A01 T00441025  RH  061%=      5-min Rain = 0
KEN1 110745Z 01009KT 04/M03 A3001 RMK A01 T00431025  RH  061%=      5-min Rain = 0
KEN1 110746Z 01009KT 04/M03 A3001 RMK A01 T00421025  RH  062%=      5-min Rain = 0
KEN1 110747Z 01009KT 04/M02 A3001 RMK A01 T00421024  RH  062%=      5-min Rain = 0
KEN1 110748Z 01010KT 04/M02 A3001 RMK A01 T00411024  RH  062%=      5-min Rain = 0
KEN1 110749Z 01012KT 04/M02 A3001 RMK A01 T00421023  RH  063%=      5-min Rain = 0
KEN1 110750Z 01012KT 04/M02 A3001 RMK A01 T00431021  RH  063%=      5-min Rain = 0
KEN1 110751Z 01012KT 04/M02 A3001 RMK A01 T00441020  RH  063%=      5-min Rain = 0
KEN1 110752Z 01012KT 05/M02 A3001 RMK A01 T00451019  RH  063%=      5-min Rain = 0
KEN1 110753Z 02013KT 05/M02 A3001 RMK A01 T00461017  RH  063%=      5-min Rain = 0
KEN1 110754Z 02012KT 05/M02 A3001 RMK A01 T00471016  RH  063%=      5-min Rain = 0
KEN1 110755Z 02012KT 05/M02 A3001 RMK A01 T00471016  RH  064%=      5-min Rain = 0
KEN1 110756Z 01012KT 05/M02 A3001 RMK A01 T00471015  RH  064%=      5-min Rain = 0
KEN1 110757Z 01012KT 05/M02 A3001 RMK A01 T00481015  RH  064%=      5-min Rain = 0
KEN1 110758Z 02012KT 05/M01 A3001 RMK A01 T00471014  RH  064%=      5-min Rain = 0
KEN1 110759Z 01011KT 05/M01 A3001 RMK A01 T00471014  RH  064%=      5-min Rain = 0
KEN1 110800Z 02011KT 05/M01 A3001 RMK A01 T00471014  RH  065%=      5-min Rain = 0
KEN1 110801Z 02011KT 05/M01 A3002 RMK A01 T00471014  RH  065%=      5-min Rain = 0
KEN1 110802Z 01011KT 05/M01 A3002 RMK A01 T00471013  RH  065%=      5-min Rain = 0
KEN1 110803Z 02010KT 05/M01 A3002 RMK A01 T00471013  RH  065%=      5-min Rain = 0
KEN1 110804Z 02011KT 05/M01 A3002 RMK A01 T00471012  RH  065%=      5-min Rain = 0
KEN1 110805Z 02009KT 05/M01 A3002 RMK A01 T00471012  RH  066%=      5-min Rain = 0
KEN1 110806Z 02011KT 05/M01 A3002 RMK A01 T00461012  RH  066%=      5-min Rain = 0
KEN1 110807Z 02012KT 05/M01 A3002 RMK A01 T00461012  RH  066%=      5-min Rain = 0
KEN1 110808Z 02011KT 05/M01 A3002 RMK A01 T00471011  RH  066%=      5-min Rain = 0
KEN1 110809Z 02012KT 05/M01 A3002 RMK A01 T00471010  RH  066%=      5-min Rain = 0
KEN1 110810Z 02011KT 05/M01 A3002 RMK A01 T00471010  RH  066%=      5-min Rain = 0
KEN1 110811Z 02011KT 05/M01 A3003 RMK A01 T00481010  RH  066%=      5-min Rain = 0
KEN1 110812Z 02011KT 05/M01 A3003 RMK A01 T00471010  RH  067%=      5-min Rain = 0
KEN1 110813Z 02011KT 05/M01 A3003 RMK A01 T00471009  RH  067%=      5-min Rain = 0
KEN1 110814Z 02011KT 05/M01 A3003 RMK A01 T00471009  RH  067%=      5-min Rain = 0
KEN1 110815Z 02012KT 05/M01 A3003 RMK A01 T00471009  RH  067%=      5-min Rain = 0
KEN1 110816Z 02013KT 05/M01 A3003 RMK A01 T00471008  RH  067%=      5-min Rain = 0
KEN1 110817Z 02013KT 05/M01 A3003 RMK A01 T00471008  RH  067%=      5-min Rain = 0
KEN1 110818Z 02011KT 05/M01 A3003 RMK A01 T00471008  RH  067%=      5-min Rain = 0
KEN1 110819Z 02011KT 05/M01 A3004 RMK A01 T00471008  RH  067%=      5-min Rain = 0
KEN1 110820Z 02011KT 05/M01 A3004 RMK A01 T00461008  RH  068%=      5-min Rain = 0
KEN1 110821Z 02011KT 05/M01 A3004 RMK A01 T00461008  RH  068%=      5-min Rain = 0
KEN1 110822Z 02011KT 05/M01 A3004 RMK A01 T00451008  RH  068%=      5-min Rain = 0
KEN1 110823Z 02011KT 05/M01 A3004 RMK A01 T00461008  RH  068%=      5-min Rain = 0
KEN1 110824Z 02013KT 05/M01 A3004 RMK A01 T00461007  RH  068%=      5-min Rain = 0
KEN1 110825Z 01010KT 05/M01 A3004 RMK A01 T00451008  RH  068%=      5-min Rain = 0
KEN1 110826Z 02012G17KT 05/M01 A3004 RMK A01 T00451008  RH  069%=      5-min Rain = 0
KEN1 110827Z 02012KT 05/M01 A3004 RMK A01 T00451007  RH  069%=      5-min Rain = 0
KEN1 110828Z 01013KT 05/M01 A3004 RMK A01 T00451007  RH  069%=      5-min Rain = 0
KEN1 110829Z 01012KT 05/M01 A3004 RMK A01 T00451007  RH  069%=      5-min Rain = 0
KEN1 110830Z 01011KT 05/M01 A3004 RMK A01 T00451007  RH  069%=      5-min Rain = 0
KEN1 110831Z 01010KT 05/M01 A3005 RMK A01 T00451007  RH  069%=      5-min Rain = 0
KEN1 110832Z 01011KT 04/M01 A3005 RMK A01 T00441007  RH  069%=      5-min Rain = 0
KEN1 110833Z 02014KT 04/M01 A3005 RMK A01 T00441007  RH  070%=      5-min Rain = 0
KEN1 110834Z 02016KT 04/M01 A3005 RMK A01 T00441007  RH  070%=      5-min Rain = 0
KEN1 110835Z 01012G17KT 05/M01 A3005 RMK A01 T00451006  RH  069%=      5-min Rain = 0
KEN1 110836Z 01014KT 05/M01 A3005 RMK A01 T00451007  RH  069%=      5-min Rain = 0
KEN1 110837Z 01011KT 05/M01 A3005 RMK A01 T00451007  RH  069%=      5-min Rain = 0
KEN1 110838Z 01010KT 04/M01 A3005 RMK A01 T00441007  RH  070%=      5-min Rain = 0
KEN1 110839Z 01011KT 04/M01 A3005 RMK A01 T00431007  RH  070%=      5-min Rain = 0
KEN1 110840Z 01011KT 04/M01 A3005 RMK A01 T00421007  RH  070%=      5-min Rain = 0
KEN1 110841Z 01011KT 04/M01 A3005 RMK A01 T00421007  RH  070%=      5-min Rain = 0
KEN1 110842Z 01012KT 04/M01 A3005 RMK A01 T00421007  RH  070%=      5-min Rain = 0
KEN1 110843Z 01010KT 04/M01 A3005 RMK A01 T00421007  RH  070%=      5-min Rain = 0
KEN1 110844Z 01009KT 04/M01 A3006 RMK A01 T00421007  RH  070%=      5-min Rain = 0
KEN1 110845Z 01007KT 04/M01 A3006 RMK A01 T00411007  RH  071%=      5-min Rain = 0
KEN1 110846Z 02008KT 04/M01 A3006 RMK A01 T00401008  RH  071%=      5-min Rain = 0
KEN1 110847Z 01009G14KT 04/M01 A3006 RMK A01 T00401007  RH  071%=      5-min Rain = 0
KEN1 110848Z 02011KT 04/M01 A3006 RMK A01 T00391007  RH  071%=      5-min Rain = 0
KEN1 110849Z 02012KT 04/M01 A3006 RMK A01 T00401007  RH  072%=      5-min Rain = 0
KEN1 110850Z 01013KT 04/M01 A3006 RMK A01 T00401006  RH  072%=      5-min Rain = 0
KEN1 110851Z 01011KT 04/M01 A3006 RMK A01 T00411006  RH  072%=      5-min Rain = 0
KEN1 110852Z 02013KT 04/M01 A3006 RMK A01 T00411006  RH  071%=      5-min Rain = 0
KEN1 110853Z 02014KT 04/M01 A3006 RMK A01 T00411006  RH  072%=      5-min Rain = 0
KEN1 110854Z 02014KT 04/M01 A3007 RMK A01 T00411005  RH  072%=      5-min Rain = 0
KEN1 110855Z 01014KT 04/M01 A3007 RMK A01 T00411005  RH  072%=      5-min Rain = 0
KEN1 110856Z 02014KT 04/M01 A3007 RMK A01 T00411005  RH  072%=      5-min Rain = 0
KEN1 110857Z 02014KT 04/M01 A3007 RMK A01 T00401005  RH  072%=      5-min Rain = 0
KEN1 110858Z 02014G20KT 04/M01 A3007 RMK A01 T00411005  RH  072%=      5-min Rain = 0
KEN1 110859Z 02017KT 04/M01 A3007 RMK A01 T00401005  RH  073%=      5-min Rain = 0
KEN1 110900Z 02016G21KT 04/M00 A3007 RMK A01 T00401004  RH  073%=      5-min Rain = 0
KEN1 110901Z 02017KT 04/M00 A3007 RMK A01 T00401004  RH  073%=      5-min Rain = 0
KEN1 110902Z 02015KT 04/M00 A3007 RMK A01 T00401004  RH  073%=      5-min Rain = 0
KEN1 110903Z 02015KT 04/M00 A3007 RMK A01 T00401003  RH  074%=      5-min Rain = 0
KEN1 110904Z 02018KT 04/M00 A3008 RMK A01 T00391003  RH  074%=      5-min Rain = 0
KEN1 110905Z 02016KT 04/M00 A3008 RMK A01 T00391002  RH  074%=      5-min Rain = 0
KEN1 110906Z 02018KT 04/M00 A3008 RMK A01 T00391002  RH  075%=      5-min Rain = 0
KEN1 110907Z 02016KT 04/M00 A3008 RMK A01 T00391002  RH  075%=      5-min Rain = 0
KEN1 110908Z 02018KT 04/M00 A3008 RMK A01 T00381002  RH  075%=      5-min Rain = 0
KEN1 110909Z 03017KT 04/M00 A3008 RMK A01 T00381002  RH  075%=      5-min Rain = 0
KEN1 110910Z 03017G22KT 04/M00 A3008 RMK A01 T00381003  RH  075%=      5-min Rain = 0
KEN1 110911Z 03017KT 04/M00 A3008 RMK A01 T00381002  RH  075%=      5-min Rain = 0
KEN1 110912Z 02016KT 04/M00 A3008 RMK A01 T00371003  RH  075%=      5-min Rain = 0
KEN1 110913Z 02015KT 04/M00 A3008 RMK A01 T00371003  RH  075%=      5-min Rain = 0
KEN1 110914Z 03013KT 04/M00 A3008 RMK A01 T00361003  RH  075%=      5-min Rain = 0
KEN1 110915Z 03015KT 04/M00 A3008 RMK A01 T00361003  RH  076%=      5-min Rain = 0
KEN1 110916Z 02014KT 04/M00 A3008 RMK A01 T00351003  RH  076%=      5-min Rain = 0
KEN1 110917Z 02013KT 04/M00 A3008 RMK A01 T00351003  RH  076%=      5-min Rain = 0
KEN1 110918Z 02011KT 04/M00 A3008 RMK A01 T00351003  RH  076%=      5-min Rain = 0
KEN1 110919Z 02013KT 03/M00 A3009 RMK A01 T00341003  RH  076%=      5-min Rain = 0
KEN1 110920Z 02012KT 03/M00 A3009 RMK A01 T00331004  RH  077%=      5-min Rain = 0
KEN1 110921Z 02011KT 03/M00 A3009 RMK A01 T00341003  RH  077%=      5-min Rain = 0
KEN1 110922Z 02010KT 03/M00 A3009 RMK A01 T00331004  RH  077%=      5-min Rain = 0
KEN1 110923Z 02012KT 03/M00 A3009 RMK A01 T00331004  RH  077%=      5-min Rain = 0
KEN1 110924Z 01011KT 03/M00 A3009 RMK A01 T00331004  RH  077%=      5-min Rain = 0
KEN1 110925Z 02015G20KT 03/M00 A3009 RMK A01 T00331004  RH  077%=      5-min Rain = 0
KEN1 110926Z 02015KT 03/M00 A3009 RMK A01 T00331004  RH  077%=      5-min Rain = 0
KEN1 110927Z 02019G26KT 03/M00 A3009 RMK A01 T00341003  RH  077%=      5-min Rain = 0
KEN1 110928Z 02019KT 03/M00 A3009 RMK A01 T00341003  RH  076%=      5-min Rain = 0
KEN1 110929Z 03018G24KT 04/M00 A3009 RMK A01 T00351003  RH  076%=      5-min Rain = 0
KEN1 110930Z 03017KT 04/M00 A301 RMK A01 T00351003  RH  076%=      5-min Rain = 0
KEN1 110931Z 02024KT 04/M00 A3009 RMK A01 T00351002  RH  077%=      5-min Rain = 0
KEN1 110932Z 02017G25KT 04/M00 A301 RMK A01 T00351002  RH  077%=      5-min Rain = 0
KEN1 110933Z 03022G29KT 03/M00 A3009 RMK A01 T00341001  RH  077%=      5-min Rain = 0
KEN1 110934Z 02023G31KT 03/00 A3009 RMK A01 T003400-0  RH  078%=      5-min Rain = 0
KEN1 110935Z 02024G30KT 03/00 A301 RMK A01 T003400-0  RH  078%=      5-min Rain = 0
KEN1 110936Z 03022G28KT 03/00 A301 RMK A01 T00340000  RH  078%=      5-min Rain = 0
KEN1 110937Z 03025KT 03/00 A301 RMK A01 T00340000  RH  078%=      5-min Rain = 0
KEN1 110938Z 03027G33KT 03/00 A301 RMK A01 T00340001  RH  079%=      5-min Rain = 0
KEN1 110939Z 03025G30KT 03/00 A301 RMK A01 T00340001  RH  079%=      5-min Rain = 0
KEN1 110940Z 04025KT 03/00 A301 RMK A01 T00340002  RH  080%=      5-min Rain = 0
KEN1 110941Z 04024G29KT 03/00 A301 RMK A01 T00330002  RH  080%=      5-min Rain = 0
KEN1 110942Z 04024G30KT 03/00 A301 RMK A01 T00330002  RH  080%=      5-min Rain = 0
KEN1 110943Z 04025G32KT 03/00 A301 RMK A01 T00320002  RH  081%=      5-min Rain = 0
KEN1 110944Z 03023KT 03/00 A3011 RMK A01 T00320002  RH  081%=      5-min Rain = 0
KEN1 110945Z 03021G27KT 03/00 A3011 RMK A01 T00320003  RH  081%=      5-min Rain = 0
KEN1 110946Z 03021KT 03/00 A3011 RMK A01 T00320002  RH  081%=      5-min Rain = 0
KEN1 110947Z 03022KT 03/00 A3011 RMK A01 T00320002  RH  081%=      5-min Rain = 0
KEN1 110948Z 03017KT 03/00 A3011 RMK A01 T00320002  RH  080%=      5-min Rain = 0
KEN1 110949Z 03021KT 03/00 A3011 RMK A01 T00320001  RH  080%=      5-min Rain = 0
KEN1 110950Z 03019KT 03/00 A3011 RMK A01 T00320000  RH  080%=      5-min Rain = 0
KEN1 110951Z 03021KT 03/00 A3012 RMK A01 T00320000  RH  080%=      5-min Rain = 0
KEN1 110952Z 02020KT 03/00 A3012 RMK A01 T00330000  RH  079%=      5-min Rain = 0
KEN1 110953Z 03018KT 03/00 A3012 RMK A01 T00330000  RH  079%=      5-min Rain = 0
KEN1 110954Z 03019G24KT 03/00 A3012 RMK A01 T00330000  RH  079%=      5-min Rain = 0
KEN1 110955Z 02014G19KT 03/00 A3013 RMK A01 T00330000  RH  079%=      5-min Rain = 0
KEN1 110956Z 03016KT 03/00 A3013 RMK A01 T00330000  RH  079%=      5-min Rain = 0
KEN1 110957Z 02018G23KT 03/00 A3013 RMK A01 T00330000  RH  079%=      5-min Rain = 0
KEN1 110958Z 02018G25KT 03/00 A3014 RMK A01 T00330000  RH  079%=      5-min Rain = 0
KEN1 110959Z 02020G25KT 03/00 A3014 RMK A01 T00330001  RH  080%=      5-min Rain = 0
KEN1 111000Z 02022G29KT 03/00 A3014 RMK A01 T00320001  RH  080%=      5-min Rain = 0
KEN1 111001Z 02020KT 03/00 A3014 RMK A01 T00320001  RH  080%=      5-min Rain = 0
KEN1 111002Z 02021KT 03/00 A3014 RMK A01 T00320002  RH  081%=      5-min Rain = 0
KEN1 111003Z 02021KT 03/00 A3014 RMK A01 T00310001  RH  081%=      5-min Rain = 0
KEN1 111004Z 02016G21KT 03/00 A3015 RMK A01 T00310002  RH  081%=      5-min Rain = 0
KEN1 111005Z 03021G27KT 03/00 A3015 RMK A01 T00310002  RH  081%=      5-min Rain = 0
KEN1 111006Z 03022G27KT 03/00 A3015 RMK A01 T00310002  RH  081%=      5-min Rain = 0
KEN1 111007Z 03022KT 03/00 A3015 RMK A01 T00310002  RH  082%=      5-min Rain = 0
KEN1 111008Z 03019G26KT 03/00 A3015 RMK A01 T00300002  RH  082%=      5-min Rain = 0
KEN1 111009Z 02017KT 03/00 A3015 RMK A01 T00300002  RH  082%=      5-min Rain = 0
KEN1 111010Z 02023G28KT 03/00 A3015 RMK A01 T00300002  RH  082%=      5-min Rain = 0
KEN1 111011Z 02022KT 03/00 A3015 RMK A01 T00300001  RH  081%=      5-min Rain = 0
KEN1 111012Z 02021KT 03/00 A3015 RMK A01 T00300000  RH  081%=      5-min Rain = 0
KEN1 111013Z 02021KT 03/00 A3016 RMK A01 T00300001  RH  081%=      5-min Rain = 0
KEN1 111014Z 02026KT 03/00 A3016 RMK A01 T003000-0  RH  081%=      5-min Rain = 0
KEN1 111015Z 02022KT 03/M00 A3016 RMK A01 T00291001  RH  081%=      5-min Rain = 0
KEN1 111016Z 02018KT 03/00 A3016 RMK A01 T002900-0  RH  081%=      5-min Rain = 0
KEN1 111017Z 02018G24KT 03/00 A3016 RMK A01 T00290000  RH  082%=      5-min Rain = 0
KEN1 111018Z 02020G25KT 03/00 A3016 RMK A01 T00290000  RH  082%=      5-min Rain = 0
KEN1 111019Z 02025G30KT 03/00 A3016 RMK A01 T002800-0  RH  082%=      5-min Rain = 0
KEN1 111020Z 03022G27KT 03/00 A3016 RMK A01 T002600-0  RH  083%=      5-min Rain = 0
KEN1 111021Z 03026KT 03/00 A3017 RMK A01 T002600-0  RH  083%=      5-min Rain = 0
KEN1 111022Z 03026KT 03/M00 A3017 RMK A01 T00251001  RH  083%=      5-min Rain = 0
KEN1 111023Z 03023G28KT 02/M00 A3017 RMK A01 T00241001  RH  083%=      5-min Rain = 0
KEN1 111024Z 03025G31KT 02/M00 A3017 RMK A01 T00241001  RH  083%=      5-min Rain = 0
KEN1 111025Z 03027G32KT 02/M00 A3017 RMK A01 T00241002  RH  083%=      5-min Rain = 0
KEN1 111026Z 02028G35KT 02/M00 A3017 RMK A01 T00231003  RH  083%=      5-min Rain = 0
KEN1 111027Z 02027G35KT 02/M00 A3017 RMK A01 T00201004  RH  084%=      5-min Rain = 0
KEN1 111028Z 02024KT 02/M00 A3018 RMK A01 T00181004  RH  085%=      5-min Rain = 0
KEN1 111029Z 02030G35KT 02/M00 A3018 RMK A01 T00171004  RH  086%=      5-min Rain = 0
KEN1 111030Z 02024G29KT 02/M01 A3018 RMK A01 T00151005  RH  087%=      5-min Rain = 0
KEN1 111031Z 02024KT 02/M00 A3018 RMK A01 T00151004  RH  087%=      5-min Rain = 0
KEN1 111032Z 02026KT 01/M00 A3018 RMK A01 T00141004  RH  088%=      5-min Rain = 0
KEN1 111033Z 03024KT 01/M00 A3018 RMK A01 T00141004  RH  088%=      5-min Rain = 0
KEN1 111034Z 03023KT 01/M00 A3018 RMK A01 T00141004  RH  088%=      5-min Rain = 0
KEN1 111035Z 03021KT 01/M00 A3018 RMK A01 T00131004  RH  088%=      5-min Rain = 0
KEN1 111036Z 03021G29KT 01/M00 A3018 RMK A01 T00131004  RH  088%=      5-min Rain = 0
KEN1 111037Z 03023KT 01/M00 A3018 RMK A01 T00131004  RH  088%=      5-min Rain = 0
KEN1 111038Z 02023KT 01/M01 A3018 RMK A01 T00131005  RH  088%=      5-min Rain = 0
KEN1 111039Z 02024G30KT 01/M01 A3018 RMK A01 T00131005  RH  088%=      5-min Rain = 0
KEN1 111040Z 02022G27KT 01/M01 A3018 RMK A01 T00131005  RH  088%=      5-min Rain = 0
KEN1 111041Z 02023G28KT 01/M01 A3018 RMK A01 T00131005  RH  088%=      5-min Rain = 0
KEN1 111042Z 02021G26KT 01/M01 A3019 RMK A01 T00131005  RH  088%=      5-min Rain = 0
KEN1 111043Z 02021KT 01/M01 A3019 RMK A01 T00131006  RH  087%=      5-min Rain = 0
KEN1 111044Z 02025G30KT 01/M01 A3018 RMK A01 T00131006  RH  087%=      5-min Rain = 0
KEN1 111045Z 02031G36KT 01/M01 A3018 RMK A01 T00121007  RH  087%=      5-min Rain = 0
KEN1 111046Z 02026G35KT 01/M01 A3018 RMK A01 T00111008  RH  087%=      5-min Rain = 0
KEN1 111047Z 02026G33KT 01/M01 A3019 RMK A01 T00111008  RH  088%=      5-min Rain = 0
KEN1 111048Z 02025G30KT 01/M01 A3019 RMK A01 T00111007  RH  088%=      5-min Rain = 0
KEN1 111049Z 02022G28KT 01/M01 A3019 RMK A01 T00101008  RH  088%=      5-min Rain = 0
KEN1 111050Z 02026KT 01/M01 A3019 RMK A01 T00101007  RH  088%=      5-min Rain = 0
KEN1 111051Z 02029G34KT 01/M01 A3019 RMK A01 T00101008  RH  088%=      5-min Rain = 0
KEN1 111052Z 02028G37KT 01/M01 A3019 RMK A01 T00101008  RH  088%=      5-min Rain = 0
KEN1 111053Z 03029G34KT 01/M01 A3019 RMK A01 T00091009  RH  088%=      5-min Rain = 0
KEN1 111054Z 02024G30KT 01/M01 A3019 RMK A01 T00091009  RH  088%=      5-min Rain = 0
KEN1 111055Z 02029G35KT 01/M01 A3019 RMK A01 T00081009  RH  088%=      5-min Rain = 0
KEN1 111056Z 02028G33KT 01/M01 A3019 RMK A01 T00081009  RH  088%=      5-min Rain = 0
KEN1 111057Z 03026KT 01/M01 A3019 RMK A01 T00081009  RH  089%=      5-min Rain = 0
KEN1 111058Z 03026KT 01/M01 A3019 RMK A01 T00081009  RH  089%=      5-min Rain = 0
KEN1 111059Z 02025KT 01/M01 A302 RMK A01 T00081009  RH  089%=      5-min Rain = 0
KEN1 111100Z 02024G29KT 01/M01 A302 RMK A01 T00081008  RH  089%=      5-min Rain = 0
KEN1 111101Z 03021G27KT 01/M01 A302 RMK A01 T00071009  RH  089%=      5-min Rain = 0
KEN1 111102Z 02020G27KT 01/M01 A302 RMK A01 T00071008  RH  089%=      5-min Rain = 0
KEN1 111103Z 02024G29KT 01/M01 A302 RMK A01 T00071008  RH  089%=      5-min Rain = 0
KEN1 111104Z 03021G27KT 01/M01 A302 RMK A01 T00071008  RH  089%=      5-min Rain = 0
KEN1 111105Z 02024G29KT 01/M01 A302 RMK A01 T00071008  RH  089%=      5-min Rain = 0
KEN1 111106Z 03017KT 01/M01 A302 RMK A01 T00071008  RH  089%=      5-min Rain = 0
KEN1 111107Z 02019G25KT 01/M01 A302 RMK A01 T00071008  RH  090%=      5-min Rain = 0
KEN1 111108Z 02025KT 01/M01 A302 RMK A01 T00071008  RH  090%=      5-min Rain = 0
KEN1 111109Z 02023G29KT 01/M01 A302 RMK A01 T00071008  RH  090%=      5-min Rain = 0
KEN1 111110Z 02024G29KT 01/M01 A302 RMK A01 T00071008  RH  090%=      5-min Rain = 0
KEN1 111111Z 02023G29KT 01/M01 A302 RMK A01 T00081007  RH  090%=      5-min Rain = 0
KEN1 111112Z 02024KT 01/M01 A302 RMK A01 T00081007  RH  090%=      5-min Rain = 0
KEN1 111113Z 03026KT 01/M01 A302 RMK A01 T00071007  RH  090%=      5-min Rain = 0
KEN1 111114Z 02021G28KT 01/M01 A302 RMK A01 T00071007  RH  090%=      5-min Rain = 0
KEN1 111115Z 02017KT 01/M01 A302 RMK A01 T00071007  RH  091%=      5-min Rain = 0
KEN1 111116Z 02022G28KT 01/M01 A302 RMK A01 T00071006  RH  091%=      5-min Rain = 0
KEN1 111117Z 02022KT 01/M01 A302 RMK A01 T00071006  RH  091%=      5-min Rain = 0
KEN1 111118Z 01023G29KT 01/M01 A302 RMK A01 T00071006  RH  091%=      5-min Rain = 0
KEN1 111119Z 02024G34KT 01/M01 A3021 RMK A01 T00071007  RH  091%=      5-min Rain = 0
KEN1 111120Z 02025KT 01/M01 A3021 RMK A01 T00061008  RH  090%=      5-min Rain = 0
KEN1 111121Z 02021G29KT 01/M01 A3021 RMK A01 T00071008  RH  090%=      5-min Rain = 0
KEN1 111122Z 01026G31KT 01/M01 A3021 RMK A01 T00071009  RH  090%=      5-min Rain = 0
KEN1 111123Z 02022KT 01/M01 A3021 RMK A01 T00071009  RH  089%=      5-min Rain = 0
KEN1 111124Z 01019G25KT 01/M01 A3021 RMK A01 T00061009  RH  089%=      5-min Rain = 0
KEN1 111125Z 02018G25KT 01/M01 A3021 RMK A01 T00061009  RH  089%=      5-min Rain = 0
KEN1 111126Z 02018G25KT 01/M01 A3022 RMK A01 T00071009  RH  089%=      5-min Rain = 0
KEN1 111127Z 02022KT 01/M01 A3021 RMK A01 T00061009  RH  090%=      5-min Rain = 0
KEN1 111128Z 03023G28KT 01/M01 A3022 RMK A01 T00071009  RH  090%=      5-min Rain = 0
KEN1 111129Z 02028G34KT 01/M01 A3022 RMK A01 T00061009  RH  090%=      5-min Rain = 0
KEN1 111130Z 02026G32KT 01/M01 A3022 RMK A01 T00061009  RH  090%=      5-min Rain = 0
KEN1 111131Z 02026G32KT 01/M01 A3022 RMK A01 T00061009  RH  090%=      5-min Rain = 0
KEN1 111132Z 02024G29KT 01/M01 A3022 RMK A01 T00061009  RH  090%=      5-min Rain = 0
KEN1 111133Z 03025KT 01/M01 A3022 RMK A01 T00051009  RH  090%=      5-min Rain = 0
KEN1 111134Z 02022G28KT 01/M01 A3022 RMK A01 T00051009  RH  090%=      5-min Rain = 0
KEN1 111135Z 02020KT 01/M01 A3022 RMK A01 T00051008  RH  091%=      5-min Rain = 0
KEN1 111136Z 02021KT 01/M01 A3022 RMK A01 T00051008  RH  091%=      5-min Rain = 0
KEN1 111137Z 02019KT 01/M01 A3022 RMK A01 T00051007  RH  091%=      5-min Rain = 0
KEN1 111138Z 02022G30KT 01/M01 A3022 RMK A01 T00051007  RH  092%=      5-min Rain = 0
KEN1 111139Z 02024KT 01/M01 A3022 RMK A01 T00051007  RH  092%=      5-min Rain = 0
KEN1 111140Z 02020KT 01/M01 A3022 RMK A01 T00051007  RH  092%=      5-min Rain = 0
KEN1 111141Z 02024G29KT 01/M01 A3022 RMK A01 T00051007  RH  092%=      5-min Rain = 0
KEN1 111142Z 02021G27KT 01/M01 A3022 RMK A01 T00051007  RH  092%=      5-min Rain = 0
KEN1 111143Z 02027KT 01/M01 A3022 RMK A01 T00051007  RH  092%=      5-min Rain = 0
KEN1 111144Z 02026KT 01/M01 A3022 RMK A01 T00051007  RH  092%=      5-min Rain = 0
KEN1 111145Z 02026G31KT 01/M01 A3022 RMK A01 T00051007  RH  092%=      5-min Rain = 0
KEN1 111146Z 02024KT 01/M01 A3023 RMK A01 T00051008  RH  091%=      5-min Rain = 0
KEN1 111147Z 02022KT 00/M01 A3023 RMK A01 T00041008  RH  091%=      5-min Rain = 0
KEN1 111148Z 01017KT 01/M01 A3023 RMK A01 T00051008  RH  091%=      5-min Rain = 0
KEN1 111149Z 02019G28KT 01/M01 A3023 RMK A01 T00051008  RH  092%=      5-min Rain = 0
KEN1 111150Z 02028G36KT 01/M01 A3023 RMK A01 T00051008  RH  091%=      5-min Rain = 0
KEN1 111151Z 02029KT 01/M01 A3023 RMK A01 T00051010  RH  090%=      5-min Rain = 0
KEN1 111152Z 02024KT 00/M01 A3023 RMK A01 T00041011  RH  090%=      5-min Rain = 0
KEN1 111153Z 01026G32KT 00/M01 A3023 RMK A01 T00041012  RH  089%=      5-min Rain = 0
KEN1 111154Z 01025G32KT 00/M01 A3023 RMK A01 T00041013  RH  088%=      5-min Rain = 0
KEN1 111155Z 02027G32KT 00/M02 A3023 RMK A01 T00041015  RH  087%=      5-min Rain = 0
KEN1 111156Z 02027KT 00/M02 A3023 RMK A01 T00041016  RH  086%=      5-min Rain = 0
KEN1 111157Z 02023KT 00/M02 A3023 RMK A01 T00041017  RH  086%=      5-min Rain = 0
KEN1 111158Z 02027G32KT 00/M02 A3023 RMK A01 T00041017  RH  086%=      5-min Rain = 0
KEN1 111159Z 02025G31KT 00/M02 A3023 RMK A01 T00041017  RH  086%=      5-min Rain = 0
KEN1 111200Z 02028G33KT 00/M02 A3023 RMK A01 T00041017  RH  086%=      5-min Rain = 0
KEN1 111201Z 02027G33KT 00/M02 A3023 RMK A01 T00041018  RH  086%=      5-min Rain = 0
KEN1 111202Z 02029KT 00/M02 A3023 RMK A01 T00031018  RH  085%=      5-min Rain = 0
KEN1 111203Z 02021G26KT 00/M02 A3024 RMK A01 T00031018  RH  086%=      5-min Rain = 0
KEN1 111204Z 02021G26KT 00/M02 A3024 RMK A01 T00031017  RH  086%=      5-min Rain = 0
KEN1 111205Z 02026KT 00/M02 A3024 RMK A01 T00031017  RH  086%=      5-min Rain = 0
KEN1 111206Z 02026KT 00/M02 A3024 RMK A01 T00031018  RH  086%=      5-min Rain = 0
KEN1 111207Z 02024G30KT 00/M02 A3024 RMK A01 T00031017  RH  086%=      5-min Rain = 0
KEN1 111208Z 02026G31KT 00/M02 A3024 RMK A01 T00031018  RH  086%=      5-min Rain = 0
KEN1 111209Z 02024KT 00/M02 A3024 RMK A01 T00021018  RH  086%=      5-min Rain = 0
KEN1 111210Z 02022KT 00/M02 A3024 RMK A01 T00021017  RH  087%=      5-min Rain = 0
KEN1 111211Z 02021G26KT 00/M02 A3024 RMK A01 T00021018  RH  087%=      5-min Rain = 0
KEN1 111212Z 02017G22KT 00/M02 A3024 RMK A01 T00021017  RH  087%=      5-min Rain = 0
KEN1 111213Z 02020G31KT 00/M02 A3025 RMK A01 T00021017  RH  087%=      5-min Rain = 0
KEN1 111214Z 01027G33KT 00/M02 A3024 RMK A01 T00021018  RH  086%=      5-min Rain = 0
KEN1 111215Z 02029G34KT 00/M02 A3024 RMK A01 T00021020  RH  085%=      5-min Rain = 0
KEN1 111216Z 02029KT 00/M02 A3025 RMK A01 T00021021  RH  085%=      5-min Rain = 0
KEN1 111217Z 02024G29KT 00/M02 A3025 RMK A01 T00021021  RH  085%=      5-min Rain = 0
KEN1 111218Z 02024KT 00/M02 A3025 RMK A01 T00021021  RH  085%=      5-min Rain = 0
KEN1 111219Z 02027G32KT 00/M02 A3025 RMK A01 T00011021  RH  085%=      5-min Rain = 0
KEN1 111220Z 02029KT 00/M02 A3025 RMK A01 T00011021  RH  085%=      5-min Rain = 0
KEN1 111221Z 02028G33KT 00/M02 A3025 RMK A01 T00011022  RH  085%=      5-min Rain = 0
KEN1 111222Z 02026KT 00/M02 A3025 RMK A01 T00011022  RH  085%=      5-min Rain = 0
KEN1 111223Z 03027KT 00/02 A3025 RMK A01 T00000-22  RH  085%=      5-min Rain = 0
KEN1 111224Z 02025KT 00/02 A3025 RMK A01 T00000-22  RH  085%=      5-min Rain = 0
KEN1 111225Z 03024G30KT 00/02 A3025 RMK A01 T00000-22  RH  085%=      5-min Rain = 0
KEN1 111226Z 03024KT 00/02 A3025 RMK A01 T00-00-21  RH  086%=      5-min Rain = 0
KEN1 111227Z 03022G29KT 00/02 A3026 RMK A01 T00-00-20  RH  086%=      5-min Rain = 0
KEN1 111228Z 03022G28KT M00/M02 A3026 RMK A01 T10011020  RH  087%=      5-min Rain = 0
KEN1 111229Z 03025KT M00/M02 A3026 RMK A01 T10011020  RH  087%=      5-min Rain = 0
KEN1 111230Z 03026G32KT M00/M02 A3026 RMK A01 T10021020  RH  088%=      5-min Rain = 0
KEN1 111231Z 03025G33KT M00/M02 A3026 RMK A01 T10021020  RH  088%=      5-min Rain = 0
KEN1 111232Z 03025KT M00/M02 A3026 RMK A01 T10021021  RH  087%=      5-min Rain = 0
KEN1 111233Z 03025G33KT M00/M02 A3026 RMK A01 T10021022  RH  087%=      5-min Rain = 0
KEN1 111234Z 02027G33KT M00/M02 A3026 RMK A01 T10031023  RH  086%=      5-min Rain = 0
KEN1 111235Z 02025KT M00/M02 A3026 RMK A01 T10041023  RH  087%=      5-min Rain = 0
KEN1 111236Z 02025KT M00/M02 A3027 RMK A01 T10041022  RH  088%=      5-min Rain = 0
KEN1 111237Z 03025KT M00/M02 A3027 RMK A01 T10041021  RH  088%=      5-min Rain = 0
KEN1 111238Z 03026KT M00/M02 A3027 RMK A01 T10041021  RH  089%=      5-min Rain = 0
KEN1 111239Z 03022KT M01/M02 A3027 RMK A01 T10051021  RH  089%=      5-min Rain = 0
KEN1 111240Z 03024KT M01/M02 A3027 RMK A01 T10051021  RH  089%=      5-min Rain = 0
KEN1 111241Z 03021G26KT M01/M02 A3027 RMK A01 T10051022  RH  089%=      5-min Rain = 0
KEN1 111242Z 03021KT M01/M02 A3027 RMK A01 T10051022  RH  089%=      5-min Rain = 0
KEN1 111243Z 02020G25KT M01/M02 A3028 RMK A01 T10061022  RH  089%=      5-min Rain = 0
KEN1 111244Z 02024G29KT M01/M02 A3028 RMK A01 T10061023  RH  088%=      5-min Rain = 0
KEN1 111245Z 01021G28KT M01/M02 A3028 RMK A01 T10061024  RH  088%=      5-min Rain = 0
KEN1 111246Z 02027KT M01/M03 A3028 RMK A01 T10061025  RH  087%=      5-min Rain = 0
KEN1 111247Z 02026KT M01/M03 A3028 RMK A01 T10061025  RH  087%=      5-min Rain = 0
KEN1 111248Z 02023G30KT M01/M03 A3028 RMK A01 T10061027  RH  086%=      5-min Rain = 0
KEN1 111249Z 02024G31KT M01/M03 A3028 RMK A01 T10061029  RH  085%=      5-min Rain = 0
KEN1 111250Z 02024G30KT M01/M03 A3028 RMK A01 T10061030  RH  084%=      5-min Rain = 0
KEN1 111251Z 02025KT M01/M03 A3028 RMK A01 T10071030  RH  084%=      5-min Rain = 0
KEN1 111252Z 02027KT M01/M03 A3028 RMK A01 T10071031  RH  084%=      5-min Rain = 0
KEN1 111253Z 03024KT M01/M03 A3028 RMK A01 T10081033  RH  083%=      5-min Rain = 0
KEN1 111254Z 02028G33KT M01/M03 A3028 RMK A01 T10091034  RH  083%=      5-min Rain = 0
KEN1 111255Z 02029G34KT M01/M03 A3029 RMK A01 T10101034  RH  084%=      5-min Rain = 0
KEN1 111256Z 02028KT M01/M03 A3029 RMK A01 T10111034  RH  084%=      5-min Rain = 0
KEN1 111257Z 02026G32KT M01/M04 A3029 RMK A01 T10121035  RH  084%=      5-min Rain = 0
KEN1 111258Z 02029G37KT M01/M04 A3029 RMK A01 T10121037  RH  084%=      5-min Rain = 0
KEN1 111259Z 02031G36KT M01/M04 A3029 RMK A01 T10141038  RH  083%=      5-min Rain = 0
KEN1 111300Z 03030G38KT M02/M04 A3029 RMK A01 T10151040  RH  083%=      5-min Rain = 0
KEN1 111301Z 03028G35KT M02/M04 A3029 RMK A01 T10151041  RH  083%=      5-min Rain = 0
KEN1 111302Z 03026G31KT M02/M04 A303 RMK A01 T10161042  RH  082%=      5-min Rain = 0
KEN1 111303Z 03025G30KT M02/M04 A303 RMK A01 T10161042  RH  082%=      5-min Rain = 0
KEN1 111304Z 03021G27KT M02/M04 A303 RMK A01 T10171042  RH  083%=      5-min Rain = 0
KEN1 111305Z 03024G30KT M02/M04 A303 RMK A01 T10171042  RH  083%=      5-min Rain = 0
KEN1 111306Z 03025G32KT M02/M04 A303 RMK A01 T10171043  RH  083%=      5-min Rain = 0
KEN1 111307Z 02023KT M02/M04 A303 RMK A01 T10171043  RH  083%=      5-min Rain = 0
KEN1 111308Z 02021G27KT M02/M04 A3031 RMK A01 T10171043  RH  083%=      5-min Rain = 0
KEN1 111309Z 03023G28KT M02/M04 A3031 RMK A01 T10181043  RH  083%=      5-min Rain = 0
KEN1 111310Z 03024G31KT M02/M04 A3031 RMK A01 T10181043  RH  083%=      5-min Rain = 0
KEN1 111311Z 03024G29KT M02/M04 A3031 RMK A01 T10191043  RH  084%=      5-min Rain = 0
KEN1 111312Z 02026G33KT M02/M04 A3031 RMK A01 T10201043  RH  085%=      5-min Rain = 0
KEN1 111313Z 03024G29KT M02/M04 A3031 RMK A01 T10211042  RH  085%=      5-min Rain = 0
KEN1 111314Z 03026G32KT M02/M04 A3031 RMK A01 T10211042  RH  086%=      5-min Rain = 0
KEN1 111315Z 03025G32KT M02/M04 A3031 RMK A01 T10221042  RH  086%=      5-min Rain = 0
KEN1 111316Z 03027KT M02/M04 A3031 RMK A01 T10221042  RH  087%=      5-min Rain = 0
KEN1 111317Z 03022G27KT M02/M04 A3031 RMK A01 T10231041  RH  087%=      5-min Rain = 0
KEN1 111318Z 03022G27KT M02/M04 A3031 RMK A01 T10231040  RH  088%=      5-min Rain = 0
KEN1 111319Z 03025KT M02/M04 A3031 RMK A01 T10241040  RH  089%=      5-min Rain = 0
KEN1 111320Z 03024KT M02/M04 A3031 RMK A01 T10241039  RH  089%=      5-min Rain = 0
KEN1 111321Z 03022G27KT M03/M04 A3031 RMK A01 T10251039  RH  090%=      5-min Rain = 0
KEN1 111322Z 03023KT M03/M04 A3032 RMK A01 T10251038  RH  090%=      5-min Rain = 0
KEN1 111323Z 02020KT M03/M04 A3032 RMK A01 T10251038  RH  091%=      5-min Rain = 0
KEN1 111324Z 02017KT M03/M04 A3032 RMK A01 T10251037  RH  092%=      5-min Rain = 0
KEN1 111325Z 02019G26KT M03/M04 A3032 RMK A01 T10251036  RH  092%=      5-min Rain = 0
KEN1 111326Z 02024KT M03/M04 A3032 RMK A01 T10251036  RH  092%=      5-min Rain = 0
KEN1 111327Z 02024KT M03/M04 A3032 RMK A01 T10261036  RH  092%=      5-min Rain = 0
KEN1 111328Z 02025G31KT M03/M04 A3032 RMK A01 T10261037  RH  092%=      5-min Rain = 0
KEN1 111329Z 02026KT M03/M04 A3032 RMK A01 T10271039  RH  092%=      5-min Rain = 0
KEN1 111330Z 03025G32KT M03/M04 A3032 RMK A01 T10281041  RH  091%=      5-min Rain = 0
KEN1 111331Z 02025KT M03/M04 A3032 RMK A01 T10281042  RH  090%=      5-min Rain = 0
KEN1 111332Z 02026KT M03/M04 A3033 RMK A01 T10281043  RH  090%=      5-min Rain = 0
KEN1 111333Z 02027KT M03/M05 A3033 RMK A01 T10291045  RH  089%=      5-min Rain = 0
KEN1 111334Z 02027G34KT M03/M05 A3033 RMK A01 T10291045  RH  089%=      5-min Rain = 0
KEN1 111335Z 02026G32KT M03/M05 A3033 RMK A01 T10291046  RH  089%=      5-min Rain = 0
KEN1 111336Z 03027G33KT M03/M05 A3033 RMK A01 T10301046  RH  089%=      5-min Rain = 0
KEN1 111337Z 03022KT M03/M05 A3033 RMK A01 T10301046  RH  089%=      5-min Rain = 0
KEN1 111338Z 02023KT M03/M05 A3033 RMK A01 T10311046  RH  089%=      5-min Rain = 0
KEN1 111339Z 02028G35KT M03/M05 A3033 RMK A01 T10311048  RH  088%=      5-min Rain = 0
KEN1 111340Z 02025G31KT M03/M05 A3034 RMK A01 T10311049  RH  087%=      5-min Rain = 0
KEN1 111341Z 02028KT M03/M05 A3034 RMK A01 T10311051  RH  086%=      5-min Rain = 0
KEN1 111342Z 03026G31KT M03/M05 A3034 RMK A01 T10311052  RH  086%=      5-min Rain = 0
KEN1 111343Z 03027KT M03/M05 A3034 RMK A01 T10321052  RH  086%=      5-min Rain = 0
KEN1 111344Z 03025G32KT M03/M05 A3034 RMK A01 T10321053  RH  086%=      5-min Rain = 0
KEN1 111345Z 03025G33KT M03/M05 A3034 RMK A01 T10321054  RH  085%=      5-min Rain = 0
KEN1 111346Z 03027KT M03/M06 A3034 RMK A01 T10321055  RH  085%=      5-min Rain = 0
KEN1 111347Z 03025G30KT M03/M06 A3034 RMK A01 T10331055  RH  084%=      5-min Rain = 0
KEN1 111348Z 02025G31KT M03/M06 A3034 RMK A01 T10331055  RH  084%=      5-min Rain = 0
KEN1 111349Z 02028G34KT M03/M06 A3034 RMK A01 T10331056  RH  084%=      5-min Rain = 0
KEN1 111350Z 03027G34KT M03/M06 A3034 RMK A01 T10331056  RH  084%=      5-min Rain = 0
KEN1 111351Z 03028G33KT M03/M06 A3034 RMK A01 T10331056  RH  084%=      5-min Rain = 0
KEN1 111352Z 03027G33KT M03/M06 A3034 RMK A01 T10341056  RH  084%=      5-min Rain = 0
KEN1 111353Z 02024KT M03/M06 A3035 RMK A01 T10341057  RH  084%=      5-min Rain = 0
KEN1 111354Z 03025G30KT M03/M06 A3035 RMK A01 T10341056  RH  085%=      5-min Rain = 0
KEN1 111355Z 02023KT M03/M06 A3035 RMK A01 T10341055  RH  085%=      5-min Rain = 0
KEN1 111356Z 03019KT M03/M06 A3036 RMK A01 T10341055  RH  086%=      5-min Rain = 0
KEN1 111357Z 02019KT M03/M05 A3036 RMK A01 T10341054  RH  086%=      5-min Rain = 0
KEN1 111358Z 03018KT M03/M05 A3036 RMK A01 T10341053  RH  087%=      5-min Rain = 0
KEN1 111359Z 03019G25KT M03/M05 A3036 RMK A01 T10341053  RH  087%=      5-min Rain = 0
KEN1 111400Z 03018G23KT M04/M05 A3036 RMK A01 T10351053  RH  088%=      5-min Rain = 0
KEN1 111401Z 03021G28KT M04/M05 A3036 RMK A01 T10351052  RH  088%=      5-min Rain = 0
KEN1 111402Z 03023G29KT M04/M05 A3036 RMK A01 T10351052  RH  088%=      5-min Rain = 0
KEN1 111403Z 03019G24KT M04/M05 A3036 RMK A01 T10361052  RH  089%=      5-min Rain = 0
KEN1 111404Z 03016KT M04/M05 A3036 RMK A01 T10361051  RH  090%=      5-min Rain = 0
KEN1 111405Z 02018KT M04/M05 A3037 RMK A01 T10361050  RH  090%=      5-min Rain = 0
KEN1 111406Z 02017KT M04/M05 A3037 RMK A01 T10361049  RH  091%=      5-min Rain = 0
KEN1 111407Z 02020G25KT M04/M05 A3037 RMK A01 T10361048  RH  091%=      5-min Rain = 0
KEN1 111408Z 02021KT M04/M05 A3037 RMK A01 T10361048  RH  091%=      5-min Rain = 0
KEN1 111409Z 02019KT M04/M05 A3037 RMK A01 T10361049  RH  091%=      5-min Rain = 0
KEN1 111410Z 02020G25KT M04/M05 A3037 RMK A01 T10371048  RH  092%=      5-min Rain = 0
KEN1 111411Z 02023KT M04/M05 A3038 RMK A01 T10371050  RH  091%=      5-min Rain = 0
KEN1 111412Z 02021G26KT M04/M05 A3038 RMK A01 T10381053  RH  090%=      5-min Rain = 0
KEN1 111413Z 02024G29KT M04/M06 A3037 RMK A01 T10391055  RH  089%=      5-min Rain = 0
KEN1 111414Z 02023KT M04/M06 A3038 RMK A01 T10391056  RH  088%=      5-min Rain = 0
KEN1 111415Z 03022G28KT M04/M06 A3038 RMK A01 T10391057  RH  088%=      5-min Rain = 0
KEN1 111416Z 02026G37KT M04/M06 A3038 RMK A01 T10391057  RH  088%=      5-min Rain = 0
KEN1 111417Z 02024G30KT M04/M06 A3038 RMK A01 T10411059  RH  087%=      5-min Rain = 0
KEN1 111418Z 02024KT M04/M06 A3038 RMK A01 T10411059  RH  087%=      5-min Rain = 0
KEN1 111419Z 02021KT M04/M06 A3038 RMK A01 T10411059  RH  087%=      5-min Rain = 0
KEN1 111420Z 03022KT M04/M06 A3038 RMK A01 T10411059  RH  088%=      5-min Rain = 0
KEN1 111421Z 02021G27KT M04/M06 A3039 RMK A01 T10411058  RH  088%=      5-min Rain = 0
KEN1 111422Z 02022KT M04/M06 A3039 RMK A01 T10411058  RH  088%=      5-min Rain = 0
KEN1 111423Z 02022KT M04/M06 A3039 RMK A01 T10411059  RH  087%=      5-min Rain = 0
KEN1 111424Z 03025G33KT M04/M06 A3039 RMK A01 T10411060  RH  087%=      5-min Rain = 0
KEN1 111425Z 03031KT M04/M06 A3039 RMK A01 T10411062  RH  085%=      5-min Rain = 0
KEN1 111426Z 03024KT M04/M06 A3039 RMK A01 T10411064  RH  084%=      5-min Rain = 0
KEN1 111427Z 03025G30KT M04/M07 A3039 RMK A01 T10401065  RH  083%=      5-min Rain = 0
KEN1 111428Z 02022G29KT M04/M07 A3039 RMK A01 T10401065  RH  083%=      5-min Rain = 0
KEN1 111429Z 03023G28KT M04/M07 A3039 RMK A01 T10401066  RH  082%=      5-min Rain = 0
KEN1 111430Z 02021G27KT M04/M07 A304 RMK A01 T10401066  RH  082%=      5-min Rain = 0
KEN1 111431Z 03021G26KT M04/M07 A304 RMK A01 T10401065  RH  082%=      5-min Rain = 0
KEN1 111432Z 03021G30KT M04/M07 A304 RMK A01 T10401065  RH  082%=      5-min Rain = 0
KEN1 111433Z 02026G31KT M04/M07 A304 RMK A01 T10401066  RH  082%=      5-min Rain = 0
KEN1 111434Z 02023G29KT M04/M07 A304 RMK A01 T10401067  RH  082%=      5-min Rain = 0
KEN1 111435Z 02026KT M04/M07 A304 RMK A01 T10401067  RH  082%=      5-min Rain = 0
KEN1 111436Z 02026G32KT M04/M07 A304 RMK A01 T10411067  RH  082%=      5-min Rain = 0
KEN1 111437Z 02022G29KT M04/M07 A304 RMK A01 T10411067  RH  082%=      5-min Rain = 0
KEN1 111438Z 02023G28KT M04/M07 A3041 RMK A01 T10411067  RH  082%=      5-min Rain = 0
KEN1 111439Z 02024G29KT M04/M07 A3041 RMK A01 T10411067  RH  082%=      5-min Rain = 0
KEN1 111440Z 03025KT M04/M07 A3041 RMK A01 T10411066  RH  083%=      5-min Rain = 0
KEN1 111441Z 02021KT M04/M07 A3041 RMK A01 T10411066  RH  083%=      5-min Rain = 0
KEN1 111442Z 02021G26KT M04/M07 A3041 RMK A01 T10411066  RH  083%=      5-min Rain = 0
KEN1 111443Z 02022G27KT M04/M07 A3041 RMK A01 T10411065  RH  083%=      5-min Rain = 0
KEN1 111444Z 02019G24KT M04/M07 A3042 RMK A01 T10411066  RH  083%=      5-min Rain = 0
KEN1 111445Z 02019KT M04/M07 A3042 RMK A01 T10411065  RH  083%=      5-min Rain = 0
KEN1 111446Z 02023KT M04/M07 A3042 RMK A01 T10411065  RH  083%=      5-min Rain = 0
KEN1 111447Z 02026KT M04/M07 A3042 RMK A01 T10411066  RH  083%=      5-min Rain = 0
KEN1 111448Z 02019G24KT M04/M07 A3043 RMK A01 T10411066  RH  083%=      5-min Rain = 0
KEN1 111449Z 02021KT M04/M07 A3043 RMK A01 T10411066  RH  083%=      5-min Rain = 0
KEN1 111450Z 02021G26KT M04/M07 A3043 RMK A01 T10411066  RH  083%=      5-min Rain = 0
KEN1 111451Z 02018G23KT M04/M07 A3043 RMK A01 T10411066  RH  083%=      5-min Rain = 0
KEN1 111452Z 01021G26KT M04/M07 A3043 RMK A01 T10411065  RH  083%=      5-min Rain = 0
KEN1 111453Z 02023KT M04/M07 A3043 RMK A01 T10411068  RH  082%=      5-min Rain = 0
KEN1 111454Z 02023KT M04/M07 A3043 RMK A01 T10421072  RH  079%=      5-min Rain = 0
KEN1 111455Z 01022G28KT M04/M08 A3043 RMK A01 T10421075  RH  078%=      5-min Rain = 0
KEN1 111456Z 02020G26KT M04/M08 A3043 RMK A01 T10421076  RH  078%=      5-min Rain = 0
KEN1 111457Z 02021G27KT M04/M08 A3043 RMK A01 T10421076  RH  077%=      5-min Rain = 0
KEN1 111458Z 02022G27KT M04/M08 A3043 RMK A01 T10421076  RH  077%=      5-min Rain = 0
KEN1 111459Z 02025KT M04/M08 A3043 RMK A01 T10421076  RH  077%=      5-min Rain = 0
KEN1 111500Z 02022KT M04/M08 A3043 RMK A01 T10431076  RH  077%=      5-min Rain = 0
KEN1 111501Z 02022KT M04/M08 A3043 RMK A01 T10431076  RH  078%=      5-min Rain = 0
KEN1 111502Z 02023KT M04/M08 A3043 RMK A01 T10431076  RH  078%=      5-min Rain = 0
KEN1 111503Z 02022KT M04/M08 A3043 RMK A01 T10441077  RH  078%=      5-min Rain = 0
KEN1 111504Z 02017G23KT M04/M08 A3043 RMK A01 T10431076  RH  078%=      5-min Rain = 0
KEN1 111505Z 02017G24KT M04/M08 A3044 RMK A01 T10431076  RH  078%=      5-min Rain = 0
KEN1 111506Z 02020KT M04/M08 A3044 RMK A01 T10431076  RH  078%=      5-min Rain = 0
KEN1 111507Z 02021KT M04/M08 A3044 RMK A01 T10431076  RH  077%=      5-min Rain = 0
KEN1 111508Z 02017KT M04/M08 A3044 RMK A01 T10421076  RH  077%=      5-min Rain = 0
KEN1 111509Z 02017G23KT M04/M08 A3044 RMK A01 T10421076  RH  077%=      5-min Rain = 0
KEN1 111510Z 02019KT M04/M08 A3044 RMK A01 T10421076  RH  078%=      5-min Rain = 0
KEN1 111511Z 02019KT M04/M08 A3044 RMK A01 T10431076  RH  077%=      5-min Rain = 0
KEN1 111512Z 02017G22KT M04/M08 A3044 RMK A01 T10431076  RH  077%=      5-min Rain = 0
KEN1 111513Z 02019KT M04/M08 A3044 RMK A01 T10421075  RH  078%=      5-min Rain = 0
KEN1 111514Z 02019G25KT M04/M08 A3044 RMK A01 T10411075  RH  078%=      5-min Rain = 0
KEN1 111515Z 02019KT M04/M08 A3044 RMK A01 T10421075  RH  078%=      5-min Rain = 0
KEN1 111516Z 02024G29KT M04/M08 A3044 RMK A01 T10421075  RH  078%=      5-min Rain = 0
KEN1 111517Z 02022G27KT M04/M08 A3044 RMK A01 T10431077  RH  077%=      5-min Rain = 0
KEN1 111518Z 02024KT M04/M08 A3044 RMK A01 T10441077  RH  078%=      5-min Rain = 0
KEN1 111519Z 02024G29KT M04/M08 A3044 RMK A01 T10441077  RH  078%=      5-min Rain = 0
KEN1 111520Z 02024KT M04/M08 A3044 RMK A01 T10441077  RH  078%=      5-min Rain = 0
KEN1 111521Z 02022KT M04/M08 A3044 RMK A01 T10441077  RH  078%=      5-min Rain = 0
KEN1 111522Z 01026G31KT M04/M08 A3045 RMK A01 T10441077  RH  078%=      5-min Rain = 0
KEN1 111523Z 02024G30KT M04/M08 A3044 RMK A01 T10441077  RH  078%=      5-min Rain = 0
KEN1 111524Z 02023KT M04/M08 A3045 RMK A01 T10441077  RH  078%=      5-min Rain = 0
KEN1 111525Z 02021KT M04/M08 A3045 RMK A01 T10441077  RH  078%=      5-min Rain = 0
KEN1 111526Z 03023G28KT M04/M08 A3045 RMK A01 T10441077  RH  078%=      5-min Rain = 0
KEN1 111527Z 02022KT M04/M08 A3045 RMK A01 T10441077  RH  078%=      5-min Rain = 0
KEN1 111528Z 02021G26KT M04/M08 A3045 RMK A01 T10441077  RH  078%=      5-min Rain = 0
KEN1 111529Z 02025G30KT M04/M08 A3045 RMK A01 T10441077  RH  077%=      5-min Rain = 0
KEN1 111530Z 02024G30KT M04/M08 A3045 RMK A01 T10441078  RH  077%=      5-min Rain = 0
KEN1 111531Z 02026G31KT M04/M08 A3045 RMK A01 T10441078  RH  078%=      5-min Rain = 0
KEN1 111532Z 02023G28KT M05/M08 A3045 RMK A01 T10451078  RH  078%=      5-min Rain = 0
KEN1 111533Z 02024G31KT M05/M08 A3045 RMK A01 T10451078  RH  078%=      5-min Rain = 0
KEN1 111534Z 02026G33KT M05/M08 A3045 RMK A01 T10451078  RH  078%=      5-min Rain = 0
KEN1 111535Z 02022KT M05/M08 A3045 RMK A01 T10451078  RH  078%=      5-min Rain = 0
KEN1 111536Z 03022G28KT M05/M08 A3045 RMK A01 T10451078  RH  078%=      5-min Rain = 0
KEN1 111537Z 02021G26KT M05/M08 A3045 RMK A01 T10451078  RH  078%=      5-min Rain = 0
KEN1 111538Z 02025KT M04/M08 A3045 RMK A01 T10441078  RH  078%=      5-min Rain = 0
KEN1 111539Z 02024G29KT M04/M08 A3046 RMK A01 T10441078  RH  077%=      5-min Rain = 0
KEN1 111540Z 02019G24KT M04/M08 A3046 RMK A01 T10441078  RH  077%=      5-min Rain = 0
KEN1 111541Z 02023G28KT M04/M08 A3046 RMK A01 T10441077  RH  077%=      5-min Rain = 0
KEN1 111542Z 03018G24KT M04/M08 A3046 RMK A01 T10441078  RH  077%=      5-min Rain = 0
KEN1 111543Z 02020G26KT M04/M08 A3046 RMK A01 T10431076  RH  077%=      5-min Rain = 0
KEN1 111544Z 02018G23KT M04/M08 A3046 RMK A01 T10431077  RH  077%=      5-min Rain = 0
KEN1 111545Z 01021G27KT M04/M08 A3046 RMK A01 T10421077  RH  077%=      5-min Rain = 0
KEN1 111546Z 01019KT M04/M08 A3046 RMK A01 T10421077  RH  077%=      5-min Rain = 0
KEN1 111547Z 01021KT M04/M08 A3046 RMK A01 T10431078  RH  077%=      5-min Rain = 0
KEN1 111548Z 01019G24KT M04/M08 A3046 RMK A01 T10421078  RH  076%=      5-min Rain = 0
KEN1 111549Z 01026G32KT M04/M08 A3046 RMK A01 T10421079  RH  076%=      5-min Rain = 0
KEN1 111550Z 02027KT M04/M08 A3046 RMK A01 T10441081  RH  075%=      5-min Rain = 0
KEN1 111551Z 02024G31KT M05/M08 A3047 RMK A01 T10451083  RH  075%=      5-min Rain = 0
KEN1 111552Z 02027G34KT M05/M08 A3046 RMK A01 T10461082  RH  075%=      5-min Rain = 0
KEN1 111553Z 02025G31KT M05/M08 A3047 RMK A01 T10471083  RH  076%=      5-min Rain = 0
KEN1 111554Z 02026G32KT M05/M08 A3047 RMK A01 T10471083  RH  076%=      5-min Rain = 0
KEN1 111555Z 02025KT M05/M08 A3047 RMK A01 T10461083  RH  076%=      5-min Rain = 0
KEN1 111556Z 03025KT M05/M08 A3047 RMK A01 T10461083  RH  076%=      5-min Rain = 0
KEN1 111557Z 03026KT M05/M08 A3047 RMK A01 T10471083  RH  076%=      5-min Rain = 0
KEN1 111558Z 02026G31KT M05/M08 A3047 RMK A01 T10471083  RH  076%=      5-min Rain = 0
KEN1 111559Z 02024G30KT M05/M08 A3047 RMK A01 T10471084  RH  076%=      5-min Rain = 0
KEN1 111600Z 02025G30KT M05/M08 A3047 RMK A01 T10471084  RH  075%=      5-min Rain = 0
KEN1 111601Z 02026G33KT M05/M08 A3047 RMK A01 T10471084  RH  075%=      5-min Rain = 0
KEN1 111602Z 02023G28KT M05/M08 A3047 RMK A01 T10461084  RH  075%=      5-min Rain = 0
KEN1 111603Z 02022G27KT M05/M08 A3047 RMK A01 T10471084  RH  075%=      5-min Rain = 0
KEN1 111604Z 02028KT M05/M08 A3047 RMK A01 T10471084  RH  075%=      5-min Rain = 0
KEN1 111605Z 03023KT M05/M08 A3047 RMK A01 T10471084  RH  075%=      5-min Rain = 0
KEN1 111606Z 02024G29KT M05/M08 A3047 RMK A01 T10471084  RH  075%=      5-min Rain = 0
KEN1 111607Z 02026KT M05/M08 A3047 RMK A01 T10481084  RH  075%=      5-min Rain = 0
KEN1 111608Z 03023KT M05/M08 A3047 RMK A01 T10481084  RH  076%=      5-min Rain = 0
KEN1 111609Z 03021G28KT M05/M08 A3047 RMK A01 T10481084  RH  076%=      5-min Rain = 0
KEN1 111610Z 02020G26KT M05/M08 A3048 RMK A01 T10471083  RH  076%=      5-min Rain = 0
KEN1 111611Z 03017G22KT M05/M08 A3048 RMK A01 T10471083  RH  076%=      5-min Rain = 0
KEN1 111612Z 02021G26KT M05/M08 A3048 RMK A01 T10461082  RH  076%=      5-min Rain = 0
KEN1 111613Z 03017G22KT M05/M08 A3048 RMK A01 T10471083  RH  076%=      5-min Rain = 0
KEN1 111614Z 03020KT M05/M08 A3047 RMK A01 T10471083  RH  076%=      5-min Rain = 0
KEN1 111615Z 02020G26KT M05/M08 A3048 RMK A01 T10461082  RH  076%=      5-min Rain = 0
KEN1 111616Z 02018KT M05/M08 A3048 RMK A01 T10461081  RH  076%=      5-min Rain = 0
KEN1 111617Z 02014KT M05/M08 A3048 RMK A01 T10451080  RH  076%=      5-min Rain = 0
KEN1 111618Z 02022G28KT M04/M08 A3048 RMK A01 T10431079  RH  076%=      5-min Rain = 0
KEN1 111619Z 02024KT M05/M08 A3048 RMK A01 T10451083  RH  075%=      5-min Rain = 0
KEN1 111620Z 01025KT M05/M09 A3048 RMK A01 T10481086  RH  074%=      5-min Rain = 0
KEN1 111621Z 01020G26KT M05/M09 A3048 RMK A01 T10491087  RH  075%=      5-min Rain = 0
KEN1 111622Z 02023KT M05/M09 A3048 RMK A01 T10491086  RH  075%=      5-min Rain = 0
KEN1 111623Z 02024KT M05/M09 A3048 RMK A01 T10491087  RH  075%=      5-min Rain = 0
KEN1 111624Z 01022KT M05/M09 A3048 RMK A01 T10501087  RH  075%=      5-min Rain = 0
KEN1 111625Z 02021G26KT M05/M09 A3048 RMK A01 T10501087  RH  075%=      5-min Rain = 0
KEN1 111626Z 02022G27KT M05/M09 A3048 RMK A01 T10491086  RH  075%=      5-min Rain = 0
KEN1 111627Z 03023G29KT M05/M09 A3048 RMK A01 T10491086  RH  075%=      5-min Rain = 0
KEN1 111628Z 02021G27KT M05/M09 A3048 RMK A01 T10491087  RH  075%=      5-min Rain = 0
KEN1 111629Z 02024KT M05/M09 A3048 RMK A01 T10481087  RH  074%=      5-min Rain = 0
KEN1 111630Z 02022KT M05/M09 A3048 RMK A01 T10501089  RH  074%=      5-min Rain = 0
KEN1 111631Z 02021KT M05/M09 A3048 RMK A01 T10501089  RH  074%=      5-min Rain = 0
KEN1 111632Z 02022KT M05/M09 A3048 RMK A01 T10491089  RH  074%=      5-min Rain = 0
KEN1 111633Z 02023KT M05/M09 A3048 RMK A01 T10491089  RH  073%=      5-min Rain = 0
KEN1 111634Z 02023KT M05/M09 A3048 RMK A01 T10491090  RH  073%=      5-min Rain = 0
KEN1 111635Z 02022G27KT M05/M09 A3048 RMK A01 T10491090  RH  073%=      5-min Rain = 0
KEN1 111636Z 03025KT M05/M09 A3048 RMK A01 T10491090  RH  073%=      5-min Rain = 0
KEN1 111637Z 02024G29KT M05/M09 A3048 RMK A01 T10481090  RH  073%=      5-min Rain = 0
KEN1 111638Z 02023G29KT M05/M09 A3048 RMK A01 T10491091  RH  072%=      5-min Rain = 0
KEN1 111639Z 02022KT M05/M09 A3048 RMK A01 T10481090  RH  072%=      5-min Rain = 0
KEN1 111640Z 02022KT M05/M09 A3048 RMK A01 T10481090  RH  073%=      5-min Rain = 0
KEN1 111641Z 02022KT M05/M09 A3048 RMK A01 T10481090  RH  072%=      5-min Rain = 0
KEN1 111642Z 01023G32KT M05/M09 A3048 RMK A01 T10471090  RH  072%=      5-min Rain = 0
KEN1 111643Z 02024G30KT M05/M09 A3048 RMK A01 T10471089  RH  072%=      5-min Rain = 0
KEN1 111644Z 01025KT M05/M09 A3048 RMK A01 T10471089  RH  072%=      5-min Rain = 0
KEN1 111645Z 01024KT M05/M09 A3048 RMK A01 T10481090  RH  072%=      5-min Rain = 0
KEN1 111646Z 01021G28KT M05/M09 A3049 RMK A01 T10471089  RH  073%=      5-min Rain = 0
KEN1 111647Z 02019KT M05/M09 A3049 RMK A01 T10471088  RH  073%=      5-min Rain = 0
KEN1 111648Z 03020G27KT M05/M09 A3049 RMK A01 T10461088  RH  073%=      5-min Rain = 0
KEN1 111649Z 02021G27KT M05/M09 A3049 RMK A01 T10451087  RH  072%=      5-min Rain = 0
KEN1 111650Z 03023KT M05/M09 A3049 RMK A01 T10451087  RH  072%=      5-min Rain = 0
KEN1 111651Z 02024KT M05/M09 A3049 RMK A01 T10461088  RH  072%=      5-min Rain = 0
KEN1 111652Z 02020KT M05/M09 A3049 RMK A01 T10461088  RH  072%=      5-min Rain = 0
KEN1 111653Z 03021KT M05/M09 A3049 RMK A01 T10451087  RH  073%=      5-min Rain = 0
KEN1 111654Z 03022KT M04/M09 A3049 RMK A01 T10441086  RH  073%=      5-min Rain = 0
KEN1 111655Z 03021KT M04/M09 A3049 RMK A01 T10441087  RH  072%=      5-min Rain = 0
KEN1 111656Z 02019G25KT M05/M09 A3049 RMK A01 T10451087  RH  072%=      5-min Rain = 0
KEN1 111657Z 02019G24KT M04/M09 A3049 RMK A01 T10441086  RH  072%=      5-min Rain = 0
KEN1 111658Z 01026KT M04/M09 A3049 RMK A01 T10431088  RH  071%=      5-min Rain = 0
KEN1 111659Z 02025KT M05/M09 A3049 RMK A01 T10461092  RH  070%=      5-min Rain = 0
KEN1 111700Z 02024G30KT M05/M09 A3049 RMK A01 T10471093  RH  070%=      5-min Rain = 0
KEN1 111701Z 02024G29KT M05/M09 A3049 RMK A01 T10481093  RH  070%=      5-min Rain = 0
KEN1 111702Z 02024G29KT M05/M09 A3049 RMK A01 T10471092  RH  071%=      5-min Rain = 0
KEN1 111703Z 02024KT M05/M09 A3049 RMK A01 T10471093  RH  071%=      5-min Rain = 0
KEN1 111704Z 01021KT M05/M09 A3049 RMK A01 T10481093  RH  071%=      5-min Rain = 0
KEN1 111705Z 02025KT M05/M09 A3049 RMK A01 T10471092  RH  071%=      5-min Rain = 0
KEN1 111706Z 02023G28KT M05/M09 A3049 RMK A01 T10471092  RH  071%=      5-min Rain = 0
KEN1 111707Z 02021G26KT M05/M09 A305 RMK A01 T10471092  RH  071%=      5-min Rain = 0
KEN1 111708Z 02024G32KT M05/M09 A3049 RMK A01 T10471092  RH  071%=      5-min Rain = 0
KEN1 111709Z 02025G30KT M05/M09 A305 RMK A01 T10471092  RH  071%=      5-min Rain = 0
KEN1 111710Z 02021KT M05/M09 A305 RMK A01 T10481092  RH  071%=      5-min Rain = 0
KEN1 111711Z 02023KT M05/M09 A305 RMK A01 T10471092  RH  071%=      5-min Rain = 0
KEN1 111712Z 02020G25KT M05/M09 A305 RMK A01 T10471092  RH  071%=      5-min Rain = 0
KEN1 111713Z 03018G24KT M05/M09 A305 RMK A01 T10461092  RH  070%=      5-min Rain = 0
KEN1 111714Z 03024G30KT M05/M09 A305 RMK A01 T10451092  RH  070%=      5-min Rain = 0
KEN1 111715Z 02022KT M05/M09 A305 RMK A01 T10451094  RH  069%=      5-min Rain = 0
KEN1 111716Z 02021G26KT M05/M10 A305 RMK A01 T10461095  RH  069%=      5-min Rain = 0
KEN1 111717Z 02022KT M05/M10 A305 RMK A01 T10461095  RH  069%=      5-min Rain = 0
KEN1 111718Z 03019G25KT M04/M09 A305 RMK A01 T10441094  RH  068%=      5-min Rain = 0
KEN1 111719Z 03026KT M04/M09 A305 RMK A01 T10421094  RH  068%=      5-min Rain = 0
KEN1 111720Z 03023G28KT M04/M10 A305 RMK A01 T10421095  RH  067%=      5-min Rain = 0
KEN1 111721Z 03027KT M04/M10 A305 RMK A01 T10421096  RH  066%=      5-min Rain = 0
KEN1 111722Z 03021G27KT M04/M10 A305 RMK A01 T10421096  RH  066%=      5-min Rain = 0
KEN1 111723Z 03024KT M04/M10 A305 RMK A01 T10421097  RH  065%=      5-min Rain = 0
KEN1 111724Z 03025KT M04/M10 A305 RMK A01 T10421097  RH  065%=      5-min Rain = 0
KEN1 111725Z 02024KT M04/M10 A305 RMK A01 T10431098  RH  065%=      5-min Rain = 0
KEN1 111726Z 02027G32KT M04/M10 A305 RMK A01 T10421097  RH  065%=      5-min Rain = 0
KEN1 111727Z 02024G29KT M04/M10 A305 RMK A01 T10421097  RH  065%=      5-min Rain = 0
KEN1 111728Z 02020KT M04/M10 A305 RMK A01 T10401095  RH  065%=      5-min Rain = 0
KEN1 111729Z 03021G28KT M04/M09 A305 RMK A01 T10361092  RH  065%=      5-min Rain = 0
KEN1 111730Z 03023G28KT M04/M10 A305 RMK A01 T10371096  RH  064%=      5-min Rain = 0
KEN1 111731Z 03022KT M04/M10 A305 RMK A01 T10391097  RH  064%=      5-min Rain = 0
KEN1 111732Z 03025KT M04/M10 A3049 RMK A01 T10391097  RH  064%=      5-min Rain = 0
KEN1 111733Z 03025KT M04/M10 A305 RMK A01 T10391097  RH  064%=      5-min Rain = 0
KEN1 111734Z 03023G29KT M04/M10 A3049 RMK A01 T10401097  RH  064%=      5-min Rain = 0
KEN1 111735Z 03023KT M04/M10 A305 RMK A01 T10391097  RH  064%=      5-min Rain = 0
KEN1 111736Z 03019G24KT M04/M10 A305 RMK A01 T10391096  RH  064%=      5-min Rain = 0
KEN1 111737Z 03023KT M04/M10 A305 RMK A01 T10381096  RH  064%=      5-min Rain = 0
KEN1 111738Z 03022KT M04/M10 A305 RMK A01 T10391097  RH  064%=      5-min Rain = 0
KEN1 111739Z 03025KT M04/M10 A305 RMK A01 T10391097  RH  064%=      5-min Rain = 0
KEN1 111740Z 03020G27KT M04/M10 A305 RMK A01 T10401097  RH  064%=      5-min Rain = 0
KEN1 111741Z 03022KT M04/M10 A305 RMK A01 T10391096  RH  065%=      5-min Rain = 0
KEN1 111742Z 03023KT M04/M10 A305 RMK A01 T10391096  RH  064%=      5-min Rain = 0
KEN1 111743Z 03019G24KT M04/M10 A305 RMK A01 T10401097  RH  065%=      5-min Rain = 0
KEN1 111744Z 03017KT M04/M10 A305 RMK A01 T10401096  RH  065%=      5-min Rain = 0
KEN1 111745Z 03020KT M04/M09 A305 RMK A01 T10381094  RH  065%=      5-min Rain = 0
KEN1 111746Z 03025G30KT M04/M09 A305 RMK A01 T10371093  RH  065%=      5-min Rain = 0
KEN1 111747Z 03025KT M04/M10 A305 RMK A01 T10371095  RH  064%=      5-min Rain = 0
KEN1 111748Z 03021KT M04/M10 A305 RMK A01 T10381096  RH  064%=      5-min Rain = 0
KEN1 111749Z 02023G28KT M04/M10 A305 RMK A01 T10371095  RH  064%=      5-min Rain = 0
KEN1 111750Z 02022KT M04/M10 A305 RMK A01 T10371095  RH  064%=      5-min Rain = 0
KEN1 111751Z 02022G29KT M04/M09 A305 RMK A01 T10361094  RH  064%=      5-min Rain = 0
KEN1 111752Z 02026KT M04/M09 A305 RMK A01 T10351094  RH  064%=      5-min Rain = 0
KEN1 111753Z 03022G27KT M04/M10 A305 RMK A01 T10361095  RH  063%=      5-min Rain = 0
KEN1 111754Z 03021G26KT M04/M10 A305 RMK A01 T10361095  RH  064%=      5-min Rain = 0
KEN1 111755Z 02022KT M04/M09 A305 RMK A01 T10351094  RH  064%=      5-min Rain = 0
KEN1 111756Z 02022KT M03/M09 A305 RMK A01 T10341093  RH  064%=      5-min Rain = 0
KEN1 111757Z 02024G29KT M03/M09 A305 RMK A01 T10331093  RH  063%=      5-min Rain = 0
KEN1 111758Z 02023KT M03/M09 A305 RMK A01 T10331094  RH  063%=      5-min Rain = 0
KEN1 111759Z 02025KT M03/M09 A305 RMK A01 T10331094  RH  063%=      5-min Rain = 0
KEN1 111800Z 02025KT M04/M10 A305 RMK A01 T10351096  RH  063%=      5-min Rain = 0
KEN1 111801Z 02025KT M04/M10 A305 RMK A01 T10361096  RH  063%=      5-min Rain = 0
KEN1 111802Z 02023KT M04/M10 A305 RMK A01 T10371096  RH  063%=      5-min Rain = 0
KEN1 111803Z 02023KT M04/M10 A305 RMK A01 T10371096  RH  064%=      5-min Rain = 0
KEN1 111804Z 02020G25KT M04/M09 A305 RMK A01 T10361094  RH  064%=      5-min Rain = 0
KEN1 111805Z 03024KT M03/M09 A305 RMK A01 T10341093  RH  064%=      5-min Rain = 0
KEN1 111806Z 02022KT M04/M10 A305 RMK A01 T10351095  RH  063%=      5-min Rain = 0
KEN1 111807Z 03021G26KT M04/M10 A305 RMK A01 T10361096  RH  063%=      5-min Rain = 0
KEN1 111808Z 02022KT M04/M10 A305 RMK A01 T10351095  RH  063%=      5-min Rain = 0
KEN1 111809Z 02020KT M04/M10 A305 RMK A01 T10351095  RH  063%=      5-min Rain = 0
KEN1 111810Z 03021KT M03/M09 A305 RMK A01 T10331094  RH  063%=      5-min Rain = 0
KEN1 111811Z 03022G27KT M03/M10 A3049 RMK A01 T10321095  RH  062%=      5-min Rain = 0
KEN1 111812Z 03023G28KT M03/M10 A3049 RMK A01 T10321097  RH  061%=      5-min Rain = 0
KEN1 111813Z 03024KT M03/M10 A3049 RMK A01 T10331098  RH  061%=      5-min Rain = 0
KEN1 111814Z 02020KT M03/M10 A305 RMK A01 T10341098  RH  061%=      5-min Rain = 0
KEN1 111815Z 03024KT M03/M10 A3049 RMK A01 T10321097  RH  061%=      5-min Rain = 0
KEN1 111816Z 03022G27KT M03/M10 A3049 RMK A01 T10301097  RH  060%=      5-min Rain = 0
KEN1 111817Z 03022G28KT M03/M10 A3049 RMK A01 T10301097  RH  060%=      5-min Rain = 0
KEN1 111818Z 03020G25KT M03/M10 A305 RMK A01 T10291097  RH  060%=      5-min Rain = 0
KEN1 111819Z 03025G31KT M03/M10 A3049 RMK A01 T10291098  RH  059%=      5-min Rain = 0
KEN1 111820Z 03025KT M03/M10 A3049 RMK A01 T10311101  RH  059%=      5-min Rain = 0
KEN1 111821Z 02023G30KT M03/M10 A305 RMK A01 T10321101  RH  059%=      5-min Rain = 0
KEN1 111822Z 02025G31KT M03/M10 A305 RMK A01 T10311102  RH  058%=      5-min Rain = 0
KEN1 111823Z 03022G27KT M03/M10 A305 RMK A01 T10321102  RH  058%=      5-min Rain = 0
KEN1 111824Z 03022KT M03/M10 A305 RMK A01 T10311101  RH  058%=      5-min Rain = 0
KEN1 111825Z 03019KT M03/M10 A305 RMK A01 T10301100  RH  058%=      5-min Rain = 0
KEN1 111826Z 03023G28KT M03/M10 A305 RMK A01 T10271100  RH  058%=      5-min Rain = 0
KEN1 111827Z 03025G31KT M03/M10 A3049 RMK A01 T10301103  RH  057%=      5-min Rain = 0
KEN1 111828Z 03021KT M03/M10 A305 RMK A01 T10331104  RH  058%=      5-min Rain = 0
KEN1 111829Z 03018KT M03/M10 A305 RMK A01 T10331103  RH  059%=      5-min Rain = 0
KEN1 111830Z 02019G26KT M03/M10 A305 RMK A01 T10311099  RH  059%=      5-min Rain = 0
KEN1 111831Z 02022KT M03/M10 A305 RMK A01 T10301100  RH  058%=      5-min Rain = 0
KEN1 111832Z 02021KT M03/M10 A305 RMK A01 T10321102  RH  058%=      5-min Rain = 0
KEN1 111833Z 03021G27KT M03/M10 A305 RMK A01 T10311100  RH  059%=      5-min Rain = 0
KEN1 111834Z 03025KT M03/M10 A305 RMK A01 T10291100  RH  058%=      5-min Rain = 0
KEN1 111835Z 02025G30KT M03/M10 A305 RMK A01 T10311102  RH  058%=      5-min Rain = 0
KEN1 111836Z 03023G29KT M03/M10 A3049 RMK A01 T10331104  RH  058%=      5-min Rain = 0
KEN1 111837Z 03020KT M03/M10 A3049 RMK A01 T10321102  RH  058%=      5-min Rain = 0
KEN1 111838Z 02020G26KT M03/M10 A305 RMK A01 T10271097  RH  058%=      5-min Rain = 0
KEN1 111839Z 04022KT M02/M10 A3049 RMK A01 T10241098  RH  057%=      5-min Rain = 0
KEN1 111840Z 03019G25KT M03/M10 A305 RMK A01 T10261101  RH  057%=      5-min Rain = 0
KEN1 111841Z 03022G27KT M03/M10 A305 RMK A01 T10271100  RH  057%=      5-min Rain = 0
KEN1 111842Z 04017KT M03/M10 A3049 RMK A01 T10281101  RH  057%=      5-min Rain = 0
KEN1 111843Z 03023G30KT M02/M10 A3049 RMK A01 T10231097  RH  057%=      5-min Rain = 0
KEN1 111844Z 02022KT M02/M10 A305 RMK A01 T10241101  RH  056%=      5-min Rain = 0
KEN1 111845Z 03023KT M03/M10 A3049 RMK A01 T10271103  RH  056%=      5-min Rain = 0
KEN1 111846Z 04021G27KT M03/M10 A3049 RMK A01 T10271102  RH  056%=      5-min Rain = 0
KEN1 111847Z 04023KT M03/M10 A3049 RMK A01 T10251101  RH  056%=      5-min Rain = 0
KEN1 111848Z 03022G27KT M02/M10 A3049 RMK A01 T10241101  RH  056%=      5-min Rain = 0
KEN1 111849Z 02021KT M02/M10 A3049 RMK A01 T10191097  RH  055%=      5-min Rain = 0
KEN1 111850Z 03024KT M02/M10 A3049 RMK A01 T10171098  RH  054%=      5-min Rain = 0
KEN1 111851Z 04022G27KT M02/M11 A3049 RMK A01 T10231105  RH  053%=      5-min Rain = 0
KEN1 111852Z 04022G27KT M03/M11 A3049 RMK A01 T10251105  RH  054%=      5-min Rain = 0
KEN1 111853Z 04022KT M03/M10 A3049 RMK A01 T10261104  RH  055%=      5-min Rain = 0
KEN1 111854Z 04023G30KT M02/M10 A3049 RMK A01 T10231101  RH  055%=      5-min Rain = 0
KEN1 111855Z 03019G24KT M02/M10 A3049 RMK A01 T10211102  RH  054%=      5-min Rain = 0
KEN1 111856Z 02024KT M02/M10 A3049 RMK A01 T10201102  RH  053%=      5-min Rain = 0
KEN1 111857Z 02021KT M02/M10 A3049 RMK A01 T10211104  RH  053%=      5-min Rain = 0
KEN1 111858Z 02022KT M02/M10 A3049 RMK A01 T10211104  RH  053%=      5-min Rain = 0
KEN1 111859Z 03022G27KT M02/M10 A3049 RMK A01 T10211104  RH  053%=      5-min Rain = 0
KEN1 111900Z 04024G30KT M02/M11 A3049 RMK A01 T10211105  RH  053%=      5-min Rain = 0
KEN1 111901Z 04025KT M02/M11 A3048 RMK A01 T10211105  RH  053%=      5-min Rain = 0
KEN1 111902Z 03023G28KT M02/M11 A3048 RMK A01 T10211105  RH  053%=      5-min Rain = 0
KEN1 111903Z 03021KT M02/M10 A3048 RMK A01 T10201104  RH  053%=      5-min Rain = 0
KEN1 111904Z 03023G28KT M02/M10 A3048 RMK A01 T10201104  RH  053%=      5-min Rain = 0
KEN1 111905Z 03024G29KT M02/M10 A3048 RMK A01 T10191103  RH  053%=      5-min Rain = 0
KEN1 111906Z 04019KT M02/M10 A3048 RMK A01 T10181102  RH  053%=      5-min Rain = 0
KEN1 111907Z 04024G29KT M02/M10 A3048 RMK A01 T10151100  RH  052%=      5-min Rain = 0
KEN1 111908Z 04022KT M02/M10 A3048 RMK A01 T10151103  RH  051%=      5-min Rain = 0
KEN1 111909Z 04022KT M02/M11 A3048 RMK A01 T10191106  RH  051%=      5-min Rain = 0
KEN1 111910Z 04025KT M02/M11 A3048 RMK A01 T10221108  RH  052%=      5-min Rain = 0
KEN1 111911Z 03022KT M02/M11 A3048 RMK A01 T10231108  RH  052%=      5-min Rain = 0
KEN1 111912Z 04022KT M02/M11 A3048 RMK A01 T10241106  RH  053%=      5-min Rain = 0
KEN1 111913Z 03023G30KT M02/M11 A3048 RMK A01 T10221105  RH  053%=      5-min Rain = 0
KEN1 111914Z 03022G27KT M02/M10 A3048 RMK A01 T10201103  RH  053%=      5-min Rain = 0
KEN1 111915Z 03025KT M02/M10 A3048 RMK A01 T10181103  RH  052%=      5-min Rain = 0
KEN1 111916Z 03022KT M02/M11 A3048 RMK A01 T10191106  RH  052%=      5-min Rain = 0
KEN1 111917Z 03020KT M02/M11 A3048 RMK A01 T10211106  RH  052%=      5-min Rain = 0
KEN1 111918Z 04025KT M02/M10 A3048 RMK A01 T10201104  RH  053%=      5-min Rain = 0
KEN1 111919Z 04025G30KT M02/M11 A3048 RMK A01 T10191105  RH  052%=      5-min Rain = 0
KEN1 111920Z 04026KT M02/M11 A3048 RMK A01 T10191106  RH  052%=      5-min Rain = 0
KEN1 111921Z 04023KT M02/M11 A3048 RMK A01 T10191106  RH  051%=      5-min Rain = 0
KEN1 111922Z 04022KT M02/M10 A3048 RMK A01 T10161103  RH  051%=      5-min Rain = 0
KEN1 111923Z 04021KT M02/M10 A3048 RMK A01 T10161104  RH  051%=      5-min Rain = 0
KEN1 111924Z 03019KT M01/M10 A3048 RMK A01 T10141102  RH  051%=      5-min Rain = 0
KEN1 111925Z 03018G24KT M01/M10 A3048 RMK A01 T10131102  RH  051%=      5-min Rain = 0
KEN1 111926Z 04017KT M02/M11 A3048 RMK A01 T10151105  RH  050%=      5-min Rain = 0
KEN1 111927Z 04021G28KT M01/M10 A3048 RMK A01 T10121101  RH  051%=      5-min Rain = 0
KEN1 111928Z 04024G29KT M01/M10 A3047 RMK A01 T10081101  RH  050%=      5-min Rain = 0
KEN1 111929Z 04020G26KT M01/M11 A3048 RMK A01 T10111105  RH  049%=      5-min Rain = 0
KEN1 111930Z 04020G26KT M01/M10 A3048 RMK A01 T10101103  RH  049%=      5-min Rain = 0
KEN1 111931Z 04023KT M01/M10 A3047 RMK A01 T10101103  RH  049%=      5-min Rain = 0
KEN1 111932Z 03021KT M01/M11 A3048 RMK A01 T10131106  RH  049%=      5-min Rain = 0
KEN1 111933Z 03023G28KT M01/M10 A3047 RMK A01 T10121104  RH  050%=      5-min Rain = 0
KEN1 111934Z 03024KT M01/M10 A3048 RMK A01 T10111103  RH  049%=      5-min Rain = 0
KEN1 111935Z 03021KT M01/M11 A3048 RMK A01 T10131105  RH  049%=      5-min Rain = 0
KEN1 111936Z 03022KT M01/M10 A3048 RMK A01 T10121104  RH  050%=      5-min Rain = 0
KEN1 111937Z 03024G29KT M01/M10 A3048 RMK A01 T10101103  RH  049%=      5-min Rain = 0
KEN1 111938Z 03022G30KT M01/M11 A3048 RMK A01 T10111105  RH  049%=      5-min Rain = 0
KEN1 111939Z 04024KT M01/M11 A3048 RMK A01 T10131107  RH  049%=      5-min Rain = 0
KEN1 111940Z 04026KT M01/M11 A3048 RMK A01 T10141107  RH  049%=      5-min Rain = 0
KEN1 111941Z 03020G25KT M02/M11 A3048 RMK A01 T10151107  RH  049%=      5-min Rain = 0
KEN1 111942Z 04020KT M01/M11 A3048 RMK A01 T10141106  RH  050%=      5-min Rain = 0
KEN1 111943Z 04021KT M01/M11 A3048 RMK A01 T10121105  RH  049%=      5-min Rain = 0
KEN1 111944Z 04019KT M01/M11 A3048 RMK A01 T10111105  RH  049%=      5-min Rain = 0
KEN1 111945Z 04018KT M01/M10 A3048 RMK A01 T10111104  RH  049%=      5-min Rain = 0
KEN1 111946Z 03017KT M01/M10 A3049 RMK A01 T10091103  RH  049%=      5-min Rain = 0
KEN1 111947Z 02022G27KT M01/M10 A3049 RMK A01 T10061102  RH  049%=      5-min Rain = 0
KEN1 111948Z 01020KT M01/M11 A3049 RMK A01 T10091106  RH  048%=      5-min Rain = 0
KEN1 111949Z 03019KT M01/M10 A3048 RMK A01 T10091104  RH  048%=      5-min Rain = 0
KEN1 111950Z 03016G22KT M01/M11 A3048 RMK A01 T10111106  RH  049%=      5-min Rain = 0
KEN1 111951Z 03019KT M01/M10 A3048 RMK A01 T10101102  RH  049%=      5-min Rain = 0
KEN1 111952Z 03025KT M01/M10 A3048 RMK A01 T10061101  RH  049%=      5-min Rain = 0
KEN1 111953Z 03018G24KT M01/M11 A3048 RMK A01 T10091106  RH  048%=      5-min Rain = 0
KEN1 111954Z 03023G28KT M01/M10 A3048 RMK A01 T10071102  RH  048%=      5-min Rain = 0
KEN1 111955Z 04023KT M01/M11 A3048 RMK A01 T10071105  RH  048%=      5-min Rain = 0
KEN1 111956Z 04018G25KT M01/M11 A3049 RMK A01 T10111107  RH  048%=      5-min Rain = 0
KEN1 111957Z 03018G24KT M01/M11 A3049 RMK A01 T10111105  RH  049%=      5-min Rain = 0
KEN1 111958Z 03022KT M01/M10 A3049 RMK A01 T10101104  RH  049%=      5-min Rain = 0
KEN1 111959Z 03017G22KT M01/M11 A3049 RMK A01 T10111105  RH  049%=      5-min Rain = 0
KEN1 112000Z 03018KT M01/M11 A3049 RMK A01 T10111105  RH  049%=      5-min Rain = 0
KEN1 112001Z 03019G26KT M01/M11 A3049 RMK A01 T10111105  RH  049%=      5-min Rain = 0
KEN1 112002Z 03022KT M01/M11 A3049 RMK A01 T10111105  RH  049%=      5-min Rain = 0
KEN1 112003Z 03019KT M01/M11 A3049 RMK A01 T10111105  RH  049%=      5-min Rain = 0
KEN1 112004Z 03019KT M01/M11 A3048 RMK A01 T10121105  RH  049%=      5-min Rain = 0
KEN1 112005Z 04018KT M01/M10 A3048 RMK A01 T10091103  RH  049%=      5-min Rain = 0
KEN1 112006Z 04019G25KT M01/M10 A3048 RMK A01 T10091104  RH  048%=      5-min Rain = 0
KEN1 112007Z 03021KT M01/M10 A3048 RMK A01 T10081104  RH  048%=      5-min Rain = 0
KEN1 112008Z 03020KT M01/M11 A3048 RMK A01 T10091105  RH  048%=      5-min Rain = 0
KEN1 112009Z 03020KT M01/M11 A3049 RMK A01 T10121107  RH  048%=      5-min Rain = 0
KEN1 112010Z 03020G27KT M01/M11 A3048 RMK A01 T10131107  RH  049%=      5-min Rain = 0
KEN1 112011Z 04024KT M01/M10 A3048 RMK A01 T10101103  RH  049%=      5-min Rain = 0
KEN1 112012Z 03019KT M01/M10 A3048 RMK A01 T10091104  RH  049%=      5-min Rain = 0
KEN1 112013Z 03017KT M01/M10 A3048 RMK A01 T10091104  RH  048%=      5-min Rain = 0
KEN1 112014Z 03018KT M01/M11 A3048 RMK A01 T10101105  RH  048%=      5-min Rain = 0
KEN1 112015Z 04016G22KT M01/M10 A3048 RMK A01 T10091104  RH  049%=      5-min Rain = 0
KEN1 112016Z 03022KT M01/M10 A3048 RMK A01 T10051101  RH  048%=      5-min Rain = 0
KEN1 112017Z 01019KT M01/M10 A3048 RMK A01 T10051103  RH  048%=      5-min Rain = 0
KEN1 112018Z 02020KT M01/M11 A3048 RMK A01 T10081106  RH  048%=      5-min Rain = 0
KEN1 112019Z 02018KT M01/M10 A3048 RMK A01 T10081104  RH  048%=      5-min Rain = 0
KEN1 112020Z 04021G28KT M01/M10 A3048 RMK A01 T10061102  RH  048%=      5-min Rain = 0
KEN1 112021Z 03024KT M01/M10 A3047 RMK A01 T10051103  RH  048%=      5-min Rain = 0
KEN1 112022Z 02021KT M01/M10 A3048 RMK A01 T10051104  RH  047%=      5-min Rain = 0
KEN1 112023Z 02019G24KT M01/M10 A3048 RMK A01 T10051104  RH  047%=      5-min Rain = 0
KEN1 112024Z 02017G23KT M00/M10 A3048 RMK A01 T10041102  RH  047%=      5-min Rain = 0
KEN1 112025Z 02021KT M00/M10 A3048 RMK A01 T10021101  RH  047%=      5-min Rain = 0
KEN1 112026Z 02020G25KT M01/M11 A3048 RMK A01 T10051106  RH  046%=      5-min Rain = 0
KEN1 112027Z 04020KT M01/M11 A3048 RMK A01 T10051105  RH  047%=      5-min Rain = 0
KEN1 112028Z 04023G28KT M00/M11 A3048 RMK A01 T10041105  RH  047%=      5-min Rain = 0
KEN1 112029Z 03021KT M01/M11 A3048 RMK A01 T10051106  RH  046%=      5-min Rain = 0
KEN1 112030Z 03021G26KT M01/M11 A3048 RMK A01 T10071107  RH  047%=      5-min Rain = 0
KEN1 112031Z 03018KT M01/M11 A3048 RMK A01 T10071106  RH  047%=      5-min Rain = 0
KEN1 112032Z 03016KT M01/M11 A3048 RMK A01 T10071105  RH  047%=      5-min Rain = 0
KEN1 112033Z 04020KT M01/M11 A3048 RMK A01 T10061105  RH  047%=      5-min Rain = 0
KEN1 112034Z 03019KT M01/M11 A3048 RMK A01 T10071106  RH  047%=      5-min Rain = 0
KEN1 112035Z 02020KT M01/M11 A3048 RMK A01 T10091108  RH  047%=      5-min Rain = 0
KEN1 112036Z 03022G27KT M01/M11 A3047 RMK A01 T10111107  RH  048%=      5-min Rain = 0
KEN1 112037Z 04022KT M01/M11 A3047 RMK A01 T10091106  RH  048%=      5-min Rain = 0
KEN1 112038Z 04020KT M01/M11 A3048 RMK A01 T10091106  RH  048%=      5-min Rain = 0
KEN1 112039Z 03020KT M01/M11 A3048 RMK A01 T10071105  RH  047%=      5-min Rain = 0
KEN1 112040Z 03016KT M01/M11 A3048 RMK A01 T10071106  RH  047%=      5-min Rain = 0
KEN1 112041Z 03015G21KT M01/M10 A3048 RMK A01 T10051104  RH  047%=      5-min Rain = 0
KEN1 112042Z 03021KT M00/M10 A3048 RMK A01 T10011102  RH  047%=      5-min Rain = 0
KEN1 112043Z 04022KT M00/M11 A3048 RMK A01 T10021106  RH  046%=      5-min Rain = 0
KEN1 112044Z 03019KT M01/M11 A3048 RMK A01 T10071109  RH  046%=      5-min Rain = 0
KEN1 112045Z 03018G23KT M01/M11 A3048 RMK A01 T10071107  RH  046%=      5-min Rain = 0
KEN1 112046Z 02017KT M01/M11 A3048 RMK A01 T10051105  RH  047%=      5-min Rain = 0
KEN1 112047Z 02019KT M00/M11 A3048 RMK A01 T10041105  RH  046%=      5-min Rain = 0
KEN1 112048Z 02020KT M00/M11 A3048 RMK A01 T10041106  RH  046%=      5-min Rain = 0
KEN1 112049Z 03021KT M01/M11 A3048 RMK A01 T10051107  RH  046%=      5-min Rain = 0
KEN1 112050Z 04020KT M00/M11 A3048 RMK A01 T10041106  RH  046%=      5-min Rain = 0
KEN1 112051Z 04019G24KT M00/M11 A3048 RMK A01 T10031106  RH  046%=      5-min Rain = 0
KEN1 112052Z 04021KT M00/M11 A3048 RMK A01 T10041107  RH  046%=      5-min Rain = 0
KEN1 112053Z 04016KT M01/M11 A3048 RMK A01 T10071109  RH  046%=      5-min Rain = 0
KEN1 112054Z 04017KT M01/M11 A3048 RMK A01 T10081108  RH  047%=      5-min Rain = 0
KEN1 112055Z 02017KT M00/M10 A3048 RMK A01 T10041104  RH  047%=      5-min Rain = 0
KEN1 112056Z 02018KT M00/M11 A3048 RMK A01 T10021105  RH  046%=      5-min Rain = 0
KEN1 112057Z 03017KT M00/M11 A3048 RMK A01 T10021106  RH  046%=      5-min Rain = 0
KEN1 112058Z 03017KT M00/M11 A3048 RMK A01 T10021106  RH  046%=      5-min Rain = 0
KEN1 112059Z 02017G22KT M00/M11 A3048 RMK A01 T10041108  RH  046%=      5-min Rain = 0
KEN1 112100Z 02017KT M01/M11 A3048 RMK A01 T10061107  RH  046%=      5-min Rain = 0
KEN1 112101Z 02019KT M01/M11 A3048 RMK A01 T10051106  RH  046%=      5-min Rain = 0
KEN1 112102Z 02020G25KT M00/M11 A3048 RMK A01 T10021105  RH  046%=      5-min Rain = 0
KEN1 112103Z 02021G27KT M00/M11 A3048 RMK A01 T10031107  RH  045%=      5-min Rain = 0
KEN1 112104Z 02020G25KT M01/M11 A3048 RMK A01 T10051108  RH  046%=      5-min Rain = 0
KEN1 112105Z 02022KT M00/M11 A3048 RMK A01 T10041107  RH  046%=      5-min Rain = 0
KEN1 112106Z 02019KT M01/M11 A3048 RMK A01 T10051108  RH  046%=      5-min Rain = 0
KEN1 112107Z 02020KT M01/M11 A3048 RMK A01 T10051108  RH  046%=      5-min Rain = 0
KEN1 112108Z 02020KT M01/M11 A3048 RMK A01 T10081110  RH  046%=      5-min Rain = 0
KEN1 112109Z 02019KT M01/M11 A3048 RMK A01 T10101110  RH  047%=      5-min Rain = 0
KEN1 112110Z 02015KT M01/M11 A3048 RMK A01 T10091108  RH  047%=      5-min Rain = 0
KEN1 112111Z 02014KT M00/M10 A3048 RMK A01 T10041103  RH  047%=      5-min Rain = 0
KEN1 112112Z 01016G21KT 00/M10 A3048 RMK A01 T00021101  RH  046%=      5-min Rain = 0
KEN1 112113Z 02017KT 00/M10 A3048 RMK A01 T00031104  RH  045%=      5-min Rain = 0
KEN1 112114Z 03019KT 00/M11 A3048 RMK A01 T00021106  RH  044%=      5-min Rain = 0
KEN1 112115Z 02019G24KT 00/M11 A3048 RMK A01 T00011107  RH  044%=      5-min Rain = 0
KEN1 112116Z 02020KT M00/M11 A3048 RMK A01 T10011108  RH  044%=      5-min Rain = 0
KEN1 112117Z 02020G26KT M00/M11 A3048 RMK A01 T10031109  RH  045%=      5-min Rain = 0
KEN1 112118Z 02022KT M01/M11 A3048 RMK A01 T10051109  RH  045%=      5-min Rain = 0
KEN1 112119Z 02019KT M01/M11 A3048 RMK A01 T10061109  RH  046%=      5-min Rain = 0
KEN1 112120Z 02019KT M01/M11 A3048 RMK A01 T10081109  RH  046%=      5-min Rain = 0
KEN1 112121Z 02020KT M01/M11 A3048 RMK A01 T10061108  RH  046%=      5-min Rain = 0
KEN1 112122Z 02022KT M01/M11 A3048 RMK A01 T10061108  RH  046%=      5-min Rain = 0
KEN1 112123Z 02019KT M01/M11 A3048 RMK A01 T10061108  RH  046%=      5-min Rain = 0
KEN1 112124Z 02019KT M01/M11 A3048 RMK A01 T10071109  RH  046%=      5-min Rain = 0
KEN1 112125Z 01019G25KT M01/M11 A3048 RMK A01 T10071109  RH  046%=      5-min Rain = 0
KEN1 112126Z 02020KT M01/M11 A3049 RMK A01 T10071108  RH  046%=      5-min Rain = 0
KEN1 112127Z 03017KT M01/M11 A3049 RMK A01 T10081110  RH  046%=      5-min Rain = 0
KEN1 112128Z 02018KT M01/M11 A3049 RMK A01 T10081108  RH  047%=      5-min Rain = 0
KEN1 112129Z 02020G26KT M01/M11 A3049 RMK A01 T10071108  RH  046%=      5-min Rain = 0
KEN1 112130Z 03017KT M01/M11 A3049 RMK A01 T10081109  RH  046%=      5-min Rain = 0
KEN1 112131Z 03016G21KT M01/M11 A3049 RMK A01 T10061107  RH  046%=      5-min Rain = 0
KEN1 112132Z 04022G27KT M00/M11 A3049 RMK A01 T10021105  RH  046%=      5-min Rain = 0
KEN1 112133Z 02018G24KT M00/M11 A3049 RMK A01 T10031108  RH  045%=      5-min Rain = 0
KEN1 112134Z 01016G21KT M00/M11 A3049 RMK A01 T10041109  RH  045%=      5-min Rain = 0
KEN1 112135Z 03016KT M01/M11 A3049 RMK A01 T10051109  RH  045%=      5-min Rain = 0
KEN1 112136Z 04017KT M01/M11 A3049 RMK A01 T10051109  RH  045%=      5-min Rain = 0
KEN1 112137Z 04021KT M01/M11 A3049 RMK A01 T10061110  RH  045%=      5-min Rain = 0
KEN1 112138Z 04019KT M01/M11 A3049 RMK A01 T10081111  RH  046%=      5-min Rain = 0
KEN1 112139Z 04017G22KT M01/M11 A3049 RMK A01 T10091111  RH  046%=      5-min Rain = 0
KEN1 112140Z 04019KT M01/M11 A3049 RMK A01 T10071109  RH  046%=      5-min Rain = 0
KEN1 112141Z 03016KT M01/M11 A3049 RMK A01 T10071110  RH  046%=      5-min Rain = 0
KEN1 112142Z 04015G20KT M01/M11 A3049 RMK A01 T10061109  RH  046%=      5-min Rain = 0
KEN1 112143Z 03019KT M01/M11 A3049 RMK A01 T10051109  RH  045%=      5-min Rain = 0
KEN1 112144Z 04018KT M00/M11 A3049 RMK A01 T10041110  RH  045%=      5-min Rain = 0
KEN1 112145Z 03019KT M01/M11 A3049 RMK A01 T10051111  RH  045%=      5-min Rain = 0
KEN1 112146Z 03018KT M01/M11 A3049 RMK A01 T10061111  RH  045%=      5-min Rain = 0
KEN1 112147Z 03015KT M01/M11 A3049 RMK A01 T10051110  RH  045%=      5-min Rain = 0
KEN1 112148Z 03018KT M01/M11 A3049 RMK A01 T10051111  RH  045%=      5-min Rain = 0
KEN1 112149Z 03018KT M01/M11 A3049 RMK A01 T10061112  RH  044%=      5-min Rain = 0
KEN1 112150Z 02020KT M01/M11 A3049 RMK A01 T10061112  RH  045%=      5-min Rain = 0
KEN1 112151Z 02020KT M01/M11 A3049 RMK A01 T10061112  RH  045%=      5-min Rain = 0
KEN1 112152Z 02018KT M01/M11 A3049 RMK A01 T10071113  RH  045%=      5-min Rain = 0
KEN1 112153Z 02018KT M01/M11 A305 RMK A01 T10071112  RH  045%=      5-min Rain = 0
KEN1 112154Z 02016KT M01/M11 A305 RMK A01 T10071112  RH  045%=      5-min Rain = 0
KEN1 112155Z 02017KT M01/M11 A305 RMK A01 T10071112  RH  045%=      5-min Rain = 0
KEN1 112156Z 02018KT M01/M11 A305 RMK A01 T10071112  RH  045%=      5-min Rain = 0
KEN1 112157Z 03016KT M01/M11 A305 RMK A01 T10071112  RH  045%=      5-min Rain = 0
KEN1 112158Z 04017KT M01/M11 A305 RMK A01 T10061112  RH  045%=      5-min Rain = 0
KEN1 112159Z 02016KT M01/M11 A305 RMK A01 T10051111  RH  045%=      5-min Rain = 0
KEN1 112200Z 04020KT M01/M11 A305 RMK A01 T10051112  RH  044%=      5-min Rain = 0
KEN1 112201Z 03018KT M01/M11 A305 RMK A01 T10051113  RH  044%=      5-min Rain = 0
KEN1 112202Z 04016KT M01/M11 A305 RMK A01 T10051113  RH  044%=      5-min Rain = 0
KEN1 112203Z 04014KT M01/M11 A305 RMK A01 T10061113  RH  044%=      5-min Rain = 0
KEN1 112204Z 03018KT M01/M11 A305 RMK A01 T10061112  RH  044%=      5-min Rain = 0
KEN1 112205Z 02018KT M01/M11 A305 RMK A01 T10061113  RH  044%=      5-min Rain = 0
KEN1 112206Z 03015KT M01/M11 A305 RMK A01 T10061113  RH  044%=      5-min Rain = 0
KEN1 112207Z 02016KT M01/M11 A305 RMK A01 T10071113  RH  044%=      5-min Rain = 0
KEN1 112208Z 03018G23KT M01/M11 A305 RMK A01 T10071114  RH  044%=      5-min Rain = 0
KEN1 112209Z 03019G24KT M01/M11 A305 RMK A01 T10081114  RH  044%=      5-min Rain = 0
KEN1 112210Z 03014KT M01/M12 A305 RMK A01 T10091115  RH  045%=      5-min Rain = 0
KEN1 112211Z 03011KT M01/M11 A305 RMK A01 T10091114  RH  045%=      5-min Rain = 0
KEN1 112212Z 02015KT M01/M11 A305 RMK A01 T10081113  RH  045%=      5-min Rain = 0
KEN1 112213Z 03019KT M01/M11 A305 RMK A01 T10071113  RH  044%=      5-min Rain = 0
KEN1 112214Z 03017KT M01/M11 A305 RMK A01 T10071114  RH  044%=      5-min Rain = 0
KEN1 112215Z 02016KT M01/M11 A305 RMK A01 T10061114  RH  044%=      5-min Rain = 0
KEN1 112216Z 03015KT M01/M11 A305 RMK A01 T10071114  RH  044%=      5-min Rain = 0
KEN1 112217Z 03013KT M01/M11 A305 RMK A01 T10071114  RH  044%=      5-min Rain = 0
KEN1 112218Z 03017KT M01/M11 A305 RMK A01 T10051113  RH  044%=      5-min Rain = 0
KEN1 112219Z 02015KT M01/M11 A305 RMK A01 T10061114  RH  044%=      5-min Rain = 0
KEN1 112220Z 02013KT M01/M11 A305 RMK A01 T10051114  RH  044%=      5-min Rain = 0
KEN1 112221Z 03013G18KT M00/M11 A305 RMK A01 T10031111  RH  044%=      5-min Rain = 0
KEN1 112222Z 03017KT M00/M11 A305 RMK A01 T10011112  RH  043%=      5-min Rain = 0
KEN1 112223Z 03016G22KT M00/M11 A305 RMK A01 T10031114  RH  043%=      5-min Rain = 0
KEN1 112224Z 03019KT M00/M12 A305 RMK A01 T10041115  RH  043%=      5-min Rain = 0
KEN1 112225Z 03018KT M01/M12 A3051 RMK A01 T10061116  RH  043%=      5-min Rain = 0
KEN1 112226Z 03013KT M01/M12 A3051 RMK A01 T10081116  RH  044%=      5-min Rain = 0
KEN1 112227Z 03012G18KT M01/M11 A3051 RMK A01 T10061114  RH  044%=      5-min Rain = 0
KEN1 112228Z 03019KT M00/M11 A3051 RMK A01 T10041113  RH  044%=      5-min Rain = 0
KEN1 112229Z 03016KT M01/M11 A3051 RMK A01 T10051114  RH  043%=      5-min Rain = 0
KEN1 112230Z 03017KT M01/M11 A3051 RMK A01 T10051114  RH  044%=      5-min Rain = 0
KEN1 112231Z 02017KT M01/M11 A3051 RMK A01 T10061114  RH  044%=      5-min Rain = 0
KEN1 112232Z 02014KT M01/M12 A3051 RMK A01 T10071115  RH  044%=      5-min Rain = 0
KEN1 112233Z 02012KT M01/M12 A3051 RMK A01 T10081115  RH  044%=      5-min Rain = 0
KEN1 112234Z 02012KT M01/M11 A3051 RMK A01 T10071114  RH  044%=      5-min Rain = 0
KEN1 112235Z 03016KT M01/M11 A3051 RMK A01 T10061114  RH  044%=      5-min Rain = 0
KEN1 112236Z 03016KT M01/M11 A3051 RMK A01 T10061114  RH  044%=      5-min Rain = 0
KEN1 112237Z 03016KT M01/M12 A3051 RMK A01 T10071115  RH  044%=      5-min Rain = 0
KEN1 112238Z 02015KT M01/M12 A3051 RMK A01 T10071115  RH  044%=      5-min Rain = 0
KEN1 112239Z 03017KT M01/M11 A3051 RMK A01 T10071114  RH  044%=      5-min Rain = 0
KEN1 112240Z 03016KT M01/M11 A3051 RMK A01 T10071114  RH  044%=      5-min Rain = 0
KEN1 112241Z 03014KT M01/M12 A3052 RMK A01 T10081115  RH  044%=      5-min Rain = 0
KEN1 112242Z 02012KT M01/M12 A3052 RMK A01 T10081115  RH  044%=      5-min Rain = 0
KEN1 112243Z 02011KT M01/M12 A3052 RMK A01 T10091115  RH  044%=      5-min Rain = 0
KEN1 112244Z 02013KT M01/M12 A3052 RMK A01 T10091115  RH  045%=      5-min Rain = 0
KEN1 112245Z 01011KT M01/M12 A3052 RMK A01 T10091115  RH  045%=      5-min Rain = 0
KEN1 112246Z 03013KT M01/M11 A3052 RMK A01 T10091114  RH  045%=      5-min Rain = 0
KEN1 112247Z 03014KT M01/M11 A3052 RMK A01 T10071112  RH  045%=      5-min Rain = 0
KEN1 112248Z 03015G20KT M01/M11 A3052 RMK A01 T10071114  RH  044%=      5-min Rain = 0
KEN1 112249Z 03015KT M01/M11 A3052 RMK A01 T10071114  RH  044%=      5-min Rain = 0
KEN1 112250Z 03014KT M01/M11 A3052 RMK A01 T10081114  RH  044%=      5-min Rain = 0
KEN1 112251Z 03014KT M01/M11 A3052 RMK A01 T10081114  RH  044%=      5-min Rain = 0
KEN1 112252Z 03016KT M01/M11 A3052 RMK A01 T10071114  RH  044%=      5-min Rain = 0
KEN1 112253Z 03016KT M01/M11 A3052 RMK A01 T10071114  RH  044%=      5-min Rain = 0
KEN1 112254Z 03016KT M01/M11 A3052 RMK A01 T10071114  RH  044%=      5-min Rain = 0
KEN1 112255Z 03015KT M01/M12 A3052 RMK A01 T10081115  RH  044%=      5-min Rain = 0
KEN1 112256Z 03015KT M01/M12 A3052 RMK A01 T10091115  RH  044%=      5-min Rain = 0
KEN1 112257Z 02017KT M01/M12 A3052 RMK A01 T10091115  RH  044%=      5-min Rain = 0
KEN1 112258Z 02016G21KT M01/M12 A3052 RMK A01 T10101116  RH  044%=      5-min Rain = 0
KEN1 112259Z 03014KT M01/M12 A3052 RMK A01 T10091116  RH  044%=      5-min Rain = 0
KEN1 112300Z 03016KT M01/M12 A3052 RMK A01 T10091115  RH  044%=      5-min Rain = 0
KEN1 112301Z 03016KT M01/M12 A3052 RMK A01 T10091115  RH  044%=      5-min Rain = 0
KEN1 112302Z 03017KT M01/M12 A3052 RMK A01 T10101116  RH  044%=      5-min Rain = 0
KEN1 112303Z 04017KT M01/M12 A3052 RMK A01 T10111117  RH  045%=      5-min Rain = 0
KEN1 112304Z 03016KT M01/M12 A3052 RMK A01 T10121117  RH  045%=      5-min Rain = 0
KEN1 112305Z 03014KT M01/M12 A3052 RMK A01 T10121116  RH  045%=      5-min Rain = 0
KEN1 112306Z 02013KT M01/M12 A3052 RMK A01 T10121116  RH  045%=      5-min Rain = 0
KEN1 112307Z 02015KT M01/M12 A3052 RMK A01 T10121116  RH  045%=      5-min Rain = 0
KEN1 112308Z 02016KT M01/M12 A3052 RMK A01 T10121116  RH  045%=      5-min Rain = 0
KEN1 112309Z 03016KT M01/M12 A3052 RMK A01 T10121116  RH  045%=      5-min Rain = 0
KEN1 112310Z 03014KT M01/M12 A3052 RMK A01 T10121116  RH  045%=      5-min Rain = 0
KEN1 112311Z 03014KT M01/M12 A3052 RMK A01 T10121116  RH  045%=      5-min Rain = 0
KEN1 112312Z 03017KT M01/M12 A3053 RMK A01 T10121116  RH  045%=      5-min Rain = 0
KEN1 112313Z 03017KT M01/M12 A3053 RMK A01 T10131116  RH  045%=      5-min Rain = 0
KEN1 112314Z 03016KT M01/M12 A3053 RMK A01 T10131116  RH  045%=      5-min Rain = 0
KEN1 112315Z 03016KT M01/M12 A3053 RMK A01 T10131116  RH  045%=      5-min Rain = 0
KEN1 112316Z 03017KT M01/M12 A3053 RMK A01 T10141116  RH  045%=      5-min Rain = 0
KEN1 112317Z 04015KT M01/M12 A3053 RMK A01 T10141117  RH  045%=      5-min Rain = 0
KEN1 112318Z 03014KT M01/M12 A3053 RMK A01 T10141117  RH  046%=      5-min Rain = 0
KEN1 112319Z 03019KT M01/M12 A3053 RMK A01 T10141116  RH  046%=      5-min Rain = 0
KEN1 112320Z 04017KT M02/M12 A3053 RMK A01 T10151117  RH  046%=      5-min Rain = 0
KEN1 112321Z 03015KT M01/M12 A3053 RMK A01 T10141117  RH  046%=      5-min Rain = 0
KEN1 112322Z 03014KT M02/M12 A3053 RMK A01 T10151117  RH  046%=      5-min Rain = 0
KEN1 112323Z 03014KT M02/M12 A3053 RMK A01 T10151117  RH  046%=      5-min Rain = 0
KEN1 112324Z 02014KT M02/M12 A3053 RMK A01 T10151116  RH  046%=      5-min Rain = 0
KEN1 112325Z 03015KT M02/M12 A3053 RMK A01 T10151117  RH  046%=      5-min Rain = 0
KEN1 112326Z 03014KT M02/M12 A3053 RMK A01 T10161117  RH  046%=      5-min Rain = 0
KEN1 112327Z 03016KT M02/M12 A3053 RMK A01 T10161116  RH  046%=      5-min Rain = 0
KEN1 112328Z 03015KT M02/M12 A3054 RMK A01 T10161117  RH  046%=      5-min Rain = 0
KEN1 112329Z 03014KT M02/M12 A3054 RMK A01 T10161117  RH  046%=      5-min Rain = 0
KEN1 112330Z 03016KT M02/M12 A3054 RMK A01 T10171117  RH  046%=      5-min Rain = 0
KEN1 112331Z 03015KT M02/M12 A3054 RMK A01 T10171117  RH  046%=      5-min Rain = 0
KEN1 112332Z 03013KT M02/M12 A3054 RMK A01 T10181117  RH  047%=      5-min Rain = 0
KEN1 112333Z 03015KT M02/M12 A3054 RMK A01 T10181117  RH  047%=      5-min Rain = 0
KEN1 112334Z 03012KT M02/M12 A3054 RMK A01 T10181117  RH  047%=      5-min Rain = 0
KEN1 112335Z 03013KT M02/M12 A3054 RMK A01 T10191117  RH  047%=      5-min Rain = 0
KEN1 112336Z 03013KT M02/M12 A3054 RMK A01 T10191117  RH  047%=      5-min Rain = 0
KEN1 112337Z 03012G17KT M02/M12 A3054 RMK A01 T10191116  RH  047%=      5-min Rain = 0
KEN1 112338Z 03014KT M02/M12 A3054 RMK A01 T10201117  RH  047%=      5-min Rain = 0
KEN1 112339Z 04014KT M02/M12 A3054 RMK A01 T10201117  RH  047%=      5-min Rain = 0
KEN1 112340Z 04014KT M02/M12 A3054 RMK A01 T10201117  RH  047%=      5-min Rain = 0
KEN1 112341Z 03014KT M02/M12 A3054 RMK A01 T10201117  RH  048%=      5-min Rain = 0
KEN1 112342Z 03014KT M02/M12 A3054 RMK A01 T10211117  RH  048%=      5-min Rain = 0
KEN1 112343Z 03013KT M02/M12 A3054 RMK A01 T10211117  RH  048%=      5-min Rain = 0
KEN1 112344Z 03012KT M02/M12 A3054 RMK A01 T10211117  RH  048%=      5-min Rain = 0
KEN1 112345Z 02011KT M02/M12 A3054 RMK A01 T10211117  RH  048%=      5-min Rain = 0
KEN1 112346Z 02012KT M02/M12 A3054 RMK A01 T10221117  RH  048%=      5-min Rain = 0
KEN1 112347Z 03012KT M02/M12 A3054 RMK A01 T10221117  RH  048%=      5-min Rain = 0
KEN1 112348Z 03010KT M02/M12 A3054 RMK A01 T10231117  RH  048%=      5-min Rain = 0
KEN1 112349Z 03011KT M02/M12 A3054 RMK A01 T10231116  RH  049%=      5-min Rain = 0
KEN1 112350Z 03009KT M02/M12 A3055 RMK A01 T10231116  RH  049%=      5-min Rain = 0
KEN1 112351Z 03009KT M02/M12 A3055 RMK A01 T10241117  RH  049%=      5-min Rain = 0
KEN1 112352Z 03011KT M03/M12 A3054 RMK A01 T10251117  RH  049%=      5-min Rain = 0
KEN1 112353Z 04011KT M03/M12 A3054 RMK A01 T10251117  RH  049%=      5-min Rain = 0
KEN1 112354Z 04011KT M02/M12 A3055 RMK A01 T10241116  RH  049%=      5-min Rain = 0
KEN1 112355Z 04012KT M03/M12 A3055 RMK A01 T10251117  RH  049%=      5-min Rain = 0
KEN1 112356Z 03010KT M03/M12 A3055 RMK A01 T10251117  RH  049%=      5-min Rain = 0
KEN1 112357Z 04011KT M03/M12 A3055 RMK A01 T10251117  RH  049%=      5-min Rain = 0
KEN1 112358Z 04009KT M03/M12 A3055 RMK A01 T10261117  RH  049%=      5-min Rain = 0
KEN1 112359Z 04009KT M03/M12 A3055 RMK A01 T10261117  RH  050%=      5-min Rain = 0
KEN1 120000Z 04010KT M03/M12 A3055 RMK A01 T10271117  RH  050%=      5-min Rain = 0
KEN1 120001Z 03011KT M03/M12 A3055 RMK A01 T10271117  RH  050%=      5-min Rain = 0
KEN1 120002Z 04010KT M03/M12 A3055 RMK A01 T10271117  RH  050%=      5-min Rain = 0
KEN1 120003Z 04009KT M03/M12 A3055 RMK A01 T10271117  RH  050%=      5-min Rain = 0
KEN1 120004Z 03010KT M03/M12 A3055 RMK A01 T10281117  RH  050%=      5-min Rain = 0
KEN1 120005Z 04011KT M03/M12 A3055 RMK A01 T10281117  RH  050%=      5-min Rain = 0
KEN1 120006Z 04013KT M03/M12 A3055 RMK A01 T10281117  RH  050%=      5-min Rain = 0
KEN1 120007Z 03011KT M03/M12 A3055 RMK A01 T10281117  RH  050%=      5-min Rain = 0
KEN1 120008Z 03011KT M03/M12 A3055 RMK A01 T10271117  RH  050%=      5-min Rain = 0
KEN1 120009Z 03011KT M03/M12 A3055 RMK A01 T10271117  RH  050%=      5-min Rain = 0
KEN1 120010Z 03010KT M03/M12 A3055 RMK A01 T10271117  RH  050%=      5-min Rain = 0
KEN1 120011Z 03011KT M03/M12 A3055 RMK A01 T10271117  RH  050%=      5-min Rain = 0
KEN1 120012Z 04012KT M03/M12 A3055 RMK A01 T10271117  RH  050%=      5-min Rain = 0
KEN1 120013Z 03010KT M03/M12 A3055 RMK A01 T10271117  RH  050%=      5-min Rain = 0
KEN1 120014Z 04011KT M03/M12 A3056 RMK A01 T10271117  RH  050%=      5-min Rain = 0
KEN1 120015Z 03011KT M03/M12 A3056 RMK A01 T10281117  RH  050%=      5-min Rain = 0
KEN1 120016Z 03010KT M03/M12 A3056 RMK A01 T10291118  RH  050%=      5-min Rain = 0
KEN1 120017Z 03010KT M03/M12 A3056 RMK A01 T10291118  RH  050%=      5-min Rain = 0
KEN1 120018Z 04009KT M03/M12 A3056 RMK A01 T10291118  RH  051%=      5-min Rain = 0
KEN1 120019Z 03009KT M03/M12 A3056 RMK A01 T10301118  RH  051%=      5-min Rain = 0
KEN1 120020Z 04009KT M03/M12 A3056 RMK A01 T10301118  RH  051%=      5-min Rain = 0
KEN1 120021Z 04010KT M03/M12 A3056 RMK A01 T10311118  RH  051%=      5-min Rain = 0
KEN1 120022Z 03009KT M03/M12 A3056 RMK A01 T10311118  RH  051%=      5-min Rain = 0
KEN1 120023Z 04010KT M03/M12 A3056 RMK A01 T10311118  RH  051%=      5-min Rain = 0
KEN1 120024Z 03009KT M03/M12 A3056 RMK A01 T10311117  RH  051%=      5-min Rain = 0
KEN1 120025Z 03009KT M03/M12 A3056 RMK A01 T10311117  RH  051%=      5-min Rain = 0
KEN1 120026Z 03010KT M03/M12 A3056 RMK A01 T10321117  RH  051%=      5-min Rain = 0
KEN1 120027Z 04009KT M03/M12 A3056 RMK A01 T10321118  RH  052%=      5-min Rain = 0
KEN1 120028Z 04009KT M03/M12 A3056 RMK A01 T10321117  RH  052%=      5-min Rain = 0
KEN1 120029Z 03009KT M03/M12 A3056 RMK A01 T10321117  RH  052%=      5-min Rain = 0
KEN1 120030Z 04007KT M03/M12 A3056 RMK A01 T10331117  RH  052%=      5-min Rain = 0
KEN1 120031Z 04008KT M03/M12 A3056 RMK A01 T10331118  RH  052%=      5-min Rain = 0
KEN1 120032Z 04007KT M03/M12 A3056 RMK A01 T10341118  RH  052%=      5-min Rain = 0
KEN1 120033Z 04008KT M04/M12 A3056 RMK A01 T10351118  RH  053%=      5-min Rain = 0
KEN1 120034Z 04008KT M04/M12 A3056 RMK A01 T10351117  RH  053%=      5-min Rain = 0
KEN1 120035Z 04008KT M04/M12 A3056 RMK A01 T10351118  RH  053%=      5-min Rain = 0
KEN1 120036Z 04007KT M04/M12 A3056 RMK A01 T10351118  RH  053%=      5-min Rain = 0
KEN1 120037Z 04007KT M04/M12 A3056 RMK A01 T10361118  RH  053%=      5-min Rain = 0
KEN1 120038Z 04008KT M04/M12 A3056 RMK A01 T10371118  RH  053%=      5-min Rain = 0
KEN1 120039Z 04007KT M04/M12 A3056 RMK A01 T10371118  RH  053%=      5-min Rain = 0
KEN1 120040Z 04009KT M04/M12 A3056 RMK A01 T10371118  RH  053%=      5-min Rain = 0
KEN1 120041Z 04008KT M04/M12 A3056 RMK A01 T10371118  RH  053%=      5-min Rain = 0
KEN1 120042Z 04009KT M04/M12 A3056 RMK A01 T10371118  RH  053%=      5-min Rain = 0
KEN1 120043Z 04008KT M04/M12 A3056 RMK A01 T10361118  RH  053%=      5-min Rain = 0
KEN1 120044Z 04008KT M04/M12 A3056 RMK A01 T10361118  RH  053%=      5-min Rain = 0
KEN1 120045Z 04009KT M04/M12 A3056 RMK A01 T10371118  RH  053%=      5-min Rain = 0
KEN1 120046Z 04007KT M04/M12 A3056 RMK A01 T10371118  RH  053%=      5-min Rain = 0
KEN1 120047Z 04008KT M04/M12 A3056 RMK A01 T10371118  RH  053%=      5-min Rain = 0
KEN1 120048Z 04009KT M04/M12 A3056 RMK A01 T10371118  RH  054%=      5-min Rain = 0
KEN1 120049Z 04008KT M04/M12 A3056 RMK A01 T10371118  RH  054%=      5-min Rain = 0
KEN1 120050Z 03009KT M04/M12 A3056 RMK A01 T10381118  RH  054%=      5-min Rain = 0
KEN1 120051Z 04008KT M04/M12 A3056 RMK A01 T10381118  RH  054%=      5-min Rain = 0
KEN1 120052Z 04009KT M04/M12 A3056 RMK A01 T10381117  RH  054%=      5-min Rain = 0
KEN1 120053Z 03009KT M04/M12 A3056 RMK A01 T10381117  RH  054%=      5-min Rain = 0
KEN1 120054Z 04009KT M04/M12 A3056 RMK A01 T10381117  RH  054%=      5-min Rain = 0
KEN1 120055Z 03009KT M04/M12 A3056 RMK A01 T10381117  RH  054%=      5-min Rain = 0
KEN1 120056Z 04008KT M04/M12 A3056 RMK A01 T10381117  RH  054%=      5-min Rain = 0
KEN1 120057Z 04008KT M04/M12 A3056 RMK A01 T10381117  RH  054%=      5-min Rain = 0
KEN1 120058Z 04009KT M04/M12 A3056 RMK A01 T10391118  RH  054%=      5-min Rain = 0
KEN1 120059Z 04009KT M04/M12 A3056 RMK A01 T10391118  RH  054%=      5-min Rain = 0
KEN1 120100Z 04009KT M04/M12 A3056 RMK A01 T10391117  RH  054%=      5-min Rain = 0
KEN1 120101Z 03008KT M04/M12 A3056 RMK A01 T10391117  RH  054%=      5-min Rain = 0
KEN1 120102Z 04008KT M04/M12 A3056 RMK A01 T10391117  RH  055%=      5-min Rain = 0
KEN1 120103Z 04008KT M04/M12 A3057 RMK A01 T10391117  RH  054%=      5-min Rain = 0
KEN1 120104Z 04007KT M04/M12 A3057 RMK A01 T10391117  RH  055%=      5-min Rain = 0
KEN1 120105Z 04008KT M04/M12 A3057 RMK A01 T10401118  RH  055%=      5-min Rain = 0
KEN1 120106Z 04007KT M04/M12 A3057 RMK A01 T10401118  RH  055%=      5-min Rain = 0
KEN1 120107Z 04008KT M04/M12 A3057 RMK A01 T10401117  RH  055%=      5-min Rain = 0
KEN1 120108Z 04008KT M04/M12 A3057 RMK A01 T10401118  RH  055%=      5-min Rain = 0
KEN1 120109Z 04007KT M04/M12 A3057 RMK A01 T10401117  RH  055%=      5-min Rain = 0
KEN1 120110Z 04008KT M04/M12 A3057 RMK A01 T10411118  RH  055%=      5-min Rain = 0
KEN1 120111Z 04007KT M04/M12 A3057 RMK A01 T10411117  RH  055%=      5-min Rain = 0
KEN1 120112Z 04007KT M04/M12 A3057 RMK A01 T10411117  RH  055%=      5-min Rain = 0
KEN1 120113Z 03007KT M04/M12 A3057 RMK A01 T10411117  RH  055%=      5-min Rain = 0
KEN1 120114Z 04006KT M04/M12 A3057 RMK A01 T10411118  RH  055%=      5-min Rain = 0
KEN1 120115Z 03006KT M04/M12 A3057 RMK A01 T10411118  RH  055%=      5-min Rain = 0
KEN1 120116Z 03007KT M04/M12 A3057 RMK A01 T10421117  RH  056%=      5-min Rain = 0
KEN1 120117Z 03007KT M04/M12 A3057 RMK A01 T10421118  RH  056%=      5-min Rain = 0
KEN1 120118Z 03006KT M04/M12 A3057 RMK A01 T10431117  RH  056%=      5-min Rain = 0
KEN1 120119Z 03006KT M04/M12 A3057 RMK A01 T10431118  RH  056%=      5-min Rain = 0
KEN1 120120Z 03006KT M04/M12 A3057 RMK A01 T10431117  RH  056%=      5-min Rain = 0
KEN1 120121Z 03006KT M04/M12 A3057 RMK A01 T10441118  RH  056%=      5-min Rain = 0
KEN1 120122Z 03006KT M05/M12 A3058 RMK A01 T10451118  RH  057%=      5-min Rain = 0
KEN1 120123Z 03006KT M05/M12 A3058 RMK A01 T10461118  RH  057%=      5-min Rain = 0
KEN1 120124Z 03006KT M05/M12 A3058 RMK A01 T10461118  RH  057%=      5-min Rain = 0
KEN1 120125Z 03006KT M05/M12 A3058 RMK A01 T10471118  RH  058%=      5-min Rain = 0
KEN1 120126Z 03006KT M05/M12 A3058 RMK A01 T10461117  RH  058%=      5-min Rain = 0
KEN1 120127Z 03005KT M05/M12 A3058 RMK A01 T10471117  RH  058%=      5-min Rain = 0
KEN1 120128Z 03006KT M05/M12 A3058 RMK A01 T10471118  RH  058%=      5-min Rain = 0
KEN1 120129Z 03006KT M05/M12 A3058 RMK A01 T10481118  RH  058%=      5-min Rain = 0
KEN1 120130Z 03006KT M05/M12 A3058 RMK A01 T10481117  RH  058%=      5-min Rain = 0
KEN1 120131Z 03006KT M05/M12 A3058 RMK A01 T10491118  RH  058%=      5-min Rain = 0
KEN1 120132Z 03005KT M05/M12 A3058 RMK A01 T10491118  RH  059%=      5-min Rain = 0
KEN1 120133Z 03006KT M05/M12 A3058 RMK A01 T10501118  RH  059%=      5-min Rain = 0
KEN1 120134Z 03005KT M05/M12 A3058 RMK A01 T10501118  RH  059%=      5-min Rain = 0
KEN1 120135Z 03005KT M05/M12 A3058 RMK A01 T10511118  RH  059%=      5-min Rain = 0
KEN1 120136Z 03005KT M05/M12 A3058 RMK A01 T10511118  RH  059%=      5-min Rain = 0
KEN1 120137Z 03005KT M05/M12 A3058 RMK A01 T10521118  RH  060%=      5-min Rain = 0
KEN1 120138Z 03004KT M05/M12 A3058 RMK A01 T10521118  RH  060%=      5-min Rain = 0
KEN1 120139Z 02004KT M05/M12 A3058 RMK A01 T10531118  RH  060%=      5-min Rain = 0
KEN1 120140Z 02005KT M05/M12 A3058 RMK A01 T10541118  RH  060%=      5-min Rain = 0
KEN1 120141Z 02005KT M05/M12 A3058 RMK A01 T10531118  RH  060%=      5-min Rain = 0
KEN1 120142Z 02004KT M05/M12 A3058 RMK A01 T10541118  RH  061%=      5-min Rain = 0
KEN1 120143Z 02004KT M06/M12 A3058 RMK A01 T10551119  RH  061%=      5-min Rain = 0
KEN1 120144Z 02005KT M06/M12 A3058 RMK A01 T10551119  RH  061%=      5-min Rain = 0
KEN1 120145Z 02004KT M06/M12 A3058 RMK A01 T10551119  RH  061%=      5-min Rain = 0
KEN1 120146Z 02005KT M06/M12 A3058 RMK A01 T10551119  RH  061%=      5-min Rain = 0
KEN1 120147Z 02005KT M06/M12 A3058 RMK A01 T10551119  RH  061%=      5-min Rain = 0
KEN1 120148Z 03005KT M06/M12 A3059 RMK A01 T10551118  RH  061%=      5-min Rain = 0
KEN1 120149Z 03006KT M06/M12 A3059 RMK A01 T10561118  RH  061%=      5-min Rain = 0
KEN1 120150Z 02006KT M06/M12 A3059 RMK A01 T10561118  RH  062%=      5-min Rain = 0
KEN1 120151Z 02006KT M06/M12 A3059 RMK A01 T10571118  RH  062%=      5-min Rain = 0
KEN1 120152Z 02006KT M06/M12 A3059 RMK A01 T10571118  RH  062%=      5-min Rain = 0
KEN1 120153Z 02006KT M06/M12 A3058 RMK A01 T10571118  RH  062%=      5-min Rain = 0
KEN1 120154Z 02006KT M06/M12 A3058 RMK A01 T10581118  RH  063%=      5-min Rain = 0
KEN1 120155Z 03006KT M06/M12 A3058 RMK A01 T10571117  RH  063%=      5-min Rain = 0
KEN1 120156Z 03006KT M06/M12 A3058 RMK A01 T10581117  RH  063%=      5-min Rain = 0
KEN1 120157Z 03005KT M06/M12 A3058 RMK A01 T10581117  RH  063%=      5-min Rain = 0
KEN1 120158Z 03005KT M06/M12 A3058 RMK A01 T10581117  RH  063%=      5-min Rain = 0
KEN1 120159Z 03005KT M06/M12 A3059 RMK A01 T10581117  RH  063%=      5-min Rain = 0
KEN1 120200Z 03005KT M06/M12 A3059 RMK A01 T10591118  RH  063%=      5-min Rain = 0
KEN1 120201Z 03005KT M06/M12 A3059 RMK A01 T10591117  RH  063%=      5-min Rain = 0
KEN1 120202Z 03005KT M06/M12 A3059 RMK A01 T10591117  RH  064%=      5-min Rain = 0
KEN1 120203Z 03005KT M06/M12 A3058 RMK A01 T10601118  RH  064%=      5-min Rain = 0
KEN1 120204Z 04005KT M06/M12 A3058 RMK A01 T10601118  RH  064%=      5-min Rain = 0
KEN1 120205Z 03006KT M06/M12 A3059 RMK A01 T10611118  RH  064%=      5-min Rain = 0
KEN1 120206Z 03005KT M06/M12 A3059 RMK A01 T10611118  RH  064%=      5-min Rain = 0
KEN1 120207Z 03006KT M06/M12 A3059 RMK A01 T10621118  RH  064%=      5-min Rain = 0
KEN1 120208Z 04006KT M06/M12 A3058 RMK A01 T10621118  RH  065%=      5-min Rain = 0
KEN1 120209Z 04006KT M06/M12 A3058 RMK A01 T10631118  RH  065%=      5-min Rain = 0
KEN1 120210Z 04006KT M06/M12 A3058 RMK A01 T10631118  RH  065%=      5-min Rain = 0
KEN1 120211Z 04005KT M06/M12 A3058 RMK A01 T10641118  RH  065%=      5-min Rain = 0
KEN1 120212Z 04005KT M06/M12 A3058 RMK A01 T10641118  RH  066%=      5-min Rain = 0
KEN1 120213Z 04005KT M06/M12 A3058 RMK A01 T10641118  RH  066%=      5-min Rain = 0
KEN1 120214Z 04005KT M07/M12 A3058 RMK A01 T10651118  RH  066%=      5-min Rain = 0
KEN1 120215Z 04005KT M07/M12 A3059 RMK A01 T10651118  RH  066%=      5-min Rain = 0
KEN1 120216Z 04005KT M07/M12 A3059 RMK A01 T10651118  RH  066%=      5-min Rain = 0
KEN1 120217Z 04006KT M07/M12 A3058 RMK A01 T10651118  RH  066%=      5-min Rain = 0
KEN1 120218Z 04006KT M06/M12 A3058 RMK A01 T10641117  RH  066%=      5-min Rain = 0
KEN1 120219Z 04007KT M06/M12 A3058 RMK A01 T10641117  RH  066%=      5-min Rain = 0
KEN1 120220Z 04007KT M06/M12 A3058 RMK A01 T10641117  RH  066%=      5-min Rain = 0
KEN1 120221Z 04008KT M06/M12 A3058 RMK A01 T10641117  RH  066%=      5-min Rain = 0
KEN1 120222Z 04009KT M06/M12 A3058 RMK A01 T10641117  RH  066%=      5-min Rain = 0
KEN1 120223Z 04008KT M06/M12 A3058 RMK A01 T10631116  RH  066%=      5-min Rain = 0
KEN1 120224Z 04008KT M06/M12 A3058 RMK A01 T10621115  RH  066%=      5-min Rain = 0
KEN1 120225Z 04009KT M06/M11 A3058 RMK A01 T10601114  RH  066%=      5-min Rain = 0
KEN1 120226Z 05009KT M06/M11 A3058 RMK A01 T10591114  RH  065%=      5-min Rain = 0
KEN1 120227Z 05010KT M06/M11 A3058 RMK A01 T10571113  RH  064%=      5-min Rain = 0
KEN1 120228Z 05010KT M05/M11 A3058 RMK A01 T10541113  RH  064%=      5-min Rain = 0
KEN1 120229Z 05009KT M05/M11 A3058 RMK A01 T10531112  RH  063%=      5-min Rain = 0
KEN1 120230Z 05010KT M05/M11 A3058 RMK A01 T10521113  RH  062%=      5-min Rain = 0
KEN1 120231Z 05009KT M05/M11 A3058 RMK A01 T10521113  RH  062%=      5-min Rain = 0
KEN1 120232Z 05009KT M05/M11 A3058 RMK A01 T10521114  RH  062%=      5-min Rain = 0
KEN1 120233Z 05009KT M05/M11 A3058 RMK A01 T10521114  RH  062%=      5-min Rain = 0
KEN1 120234Z 05010KT M05/M11 A3058 RMK A01 T10511114  RH  062%=      5-min Rain = 0
KEN1 120235Z 05009KT M05/M11 A3058 RMK A01 T10521114  RH  061%=      5-min Rain = 0
KEN1 120236Z 05009KT M05/M11 A3058 RMK A01 T10521114  RH  061%=      5-min Rain = 0
KEN1 120237Z 05009KT M05/M11 A3058 RMK A01 T10521114  RH  061%=      5-min Rain = 0
KEN1 120238Z 05009KT M05/M11 A3058 RMK A01 T10521114  RH  062%=      5-min Rain = 0
KEN1 120239Z 05009KT M05/M12 A3058 RMK A01 T10521115  RH  062%=      5-min Rain = 0
KEN1 120240Z 05009KT M05/M12 A3058 RMK A01 T10531115  RH  062%=      5-min Rain = 0
KEN1 120241Z 05010KT M05/M11 A3058 RMK A01 T10531114  RH  062%=      5-min Rain = 0
KEN1 120242Z 05009KT M05/M11 A3058 RMK A01 T10531114  RH  062%=      5-min Rain = 0
KEN1 120243Z 05010KT M05/M11 A3058 RMK A01 T10531114  RH  062%=      5-min Rain = 0
KEN1 120244Z 05009KT M05/M12 A3058 RMK A01 T10531115  RH  062%=      5-min Rain = 0
KEN1 120245Z 05009KT M05/M11 A3058 RMK A01 T10531114  RH  062%=      5-min Rain = 0
KEN1 120246Z 05009KT M05/M11 A3058 RMK A01 T10531114  RH  062%=      5-min Rain = 0
KEN1 120247Z 05009KT M05/M12 A3058 RMK A01 T10531115  RH  062%=      5-min Rain = 0
KEN1 120248Z 05009KT M05/M12 A3058 RMK A01 T10531115  RH  062%=      5-min Rain = 0
KEN1 120249Z 05008KT M05/M12 A3058 RMK A01 T10541115  RH  062%=      5-min Rain = 0
KEN1 120250Z 05008KT M06/M12 A3058 RMK A01 T10551115  RH  063%=      5-min Rain = 0
KEN1 120251Z 05009KT M06/M12 A3058 RMK A01 T10551115  RH  063%=      5-min Rain = 0
KEN1 120252Z 05009KT M06/M12 A3058 RMK A01 T10551115  RH  063%=      5-min Rain = 0
KEN1 120253Z 05009KT M06/M12 A3058 RMK A01 T10551115  RH  063%=      5-min Rain = 0
KEN1 120254Z 05009KT M06/M12 A3058 RMK A01 T10551115  RH  063%=      5-min Rain = 0
KEN1 120255Z 06009KT M06/M11 A3058 RMK A01 T10551114  RH  063%=      5-min Rain = 0
KEN1 120256Z 06009KT M06/M11 A3058 RMK A01 T10551114  RH  063%=      5-min Rain = 0
KEN1 120257Z 06008KT M06/M12 A3058 RMK A01 T10551115  RH  063%=      5-min Rain = 0
KEN1 120258Z 06006KT M06/M12 A3058 RMK A01 T10551115  RH  063%=      5-min Rain = 0
KEN1 120259Z 05007KT M06/M12 A3058 RMK A01 T10551115  RH  063%=      5-min Rain = 0
KEN1 120300Z 05006KT M06/M12 A3058 RMK A01 T10551115  RH  063%=      5-min Rain = 0
KEN1 120301Z 04006KT M06/M12 A3058 RMK A01 T10551115  RH  063%=      5-min Rain = 0
KEN1 120302Z 04005KT M06/M12 A3058 RMK A01 T10561115  RH  063%=      5-min Rain = 0
KEN1 120303Z 04006KT M06/M12 A3058 RMK A01 T10561115  RH  063%=      5-min Rain = 0
KEN1 120304Z 04006KT M06/M12 A3058 RMK A01 T10571115  RH  063%=      5-min Rain = 0
KEN1 120305Z 04006KT M06/M12 A3058 RMK A01 T10571115  RH  063%=      5-min Rain = 0
KEN1 120306Z 04006KT M06/M12 A3058 RMK A01 T10571115  RH  063%=      5-min Rain = 0
KEN1 120307Z 05006KT M06/M12 A3058 RMK A01 T10571115  RH  064%=      5-min Rain = 0
KEN1 120308Z 05006KT M06/M12 A3058 RMK A01 T10571115  RH  064%=      5-min Rain = 0
KEN1 120309Z 05007KT M06/M12 A3058 RMK A01 T10571115  RH  064%=      5-min Rain = 0
KEN1 120310Z 04006KT M06/M12 A3058 RMK A01 T10571115  RH  064%=      5-min Rain = 0
KEN1 120311Z 04006KT M06/M12 A3058 RMK A01 T10571115  RH  064%=      5-min Rain = 0
KEN1 120312Z 05007KT M06/M12 A3058 RMK A01 T10581115  RH  064%=      5-min Rain = 0
KEN1 120313Z 05006KT M06/M12 A3058 RMK A01 T10581115  RH  064%=      5-min Rain = 0
KEN1 120314Z 05006KT M06/M12 A3058 RMK A01 T10581115  RH  064%=      5-min Rain = 0
KEN1 120315Z 05006KT M06/M12 A3059 RMK A01 T10591115  RH  064%=      5-min Rain = 0
KEN1 120316Z 05006KT M06/M12 A3059 RMK A01 T10591115  RH  065%=      5-min Rain = 0
KEN1 120317Z 05006KT M06/M12 A3059 RMK A01 T10601116  RH  065%=      5-min Rain = 0
KEN1 120318Z 05007KT M06/M12 A3059 RMK A01 T10601115  RH  065%=      5-min Rain = 0
KEN1 120319Z 05007KT M06/M12 A3059 RMK A01 T10611115  RH  065%=      5-min Rain = 0
KEN1 120320Z 04007KT M06/M12 A3059 RMK A01 T10611115  RH  065%=      5-min Rain = 0
KEN1 120321Z 04006KT M06/M12 A3059 RMK A01 T10611115  RH  065%=      5-min Rain = 0
KEN1 120322Z 04006KT M06/M12 A3059 RMK A01 T10601115  RH  065%=      5-min Rain = 0
KEN1 120323Z 04007KT M06/M12 A3059 RMK A01 T10601115  RH  065%=      5-min Rain = 0
KEN1 120324Z 04007KT M06/M12 A3059 RMK A01 T10601115  RH  065%=      5-min Rain = 0
KEN1 120325Z 04007KT M06/M12 A3059 RMK A01 T10601115  RH  065%=      5-min Rain = 0
KEN1 120326Z 04006KT M06/M11 A3059 RMK A01 T10591114  RH  065%=      5-min Rain = 0
KEN1 120327Z 04006KT M06/M12 A3059 RMK A01 T10601115  RH  065%=      5-min Rain = 0
KEN1 120328Z 03006KT M06/M12 A3059 RMK A01 T10611116  RH  065%=      5-min Rain = 0
KEN1 120329Z 03006KT M06/M12 A3059 RMK A01 T10621116  RH  066%=      5-min Rain = 0
KEN1 120330Z 03007KT M06/M12 A3059 RMK A01 T10631116  RH  066%=      5-min Rain = 0
KEN1 120331Z 03007KT M06/M12 A3059 RMK A01 T10631116  RH  066%=      5-min Rain = 0
KEN1 120332Z 03007KT M06/M12 A3059 RMK A01 T10631116  RH  066%=      5-min Rain = 0
KEN1 120333Z 03007KT M06/M12 A3059 RMK A01 T10641116  RH  067%=      5-min Rain = 0
KEN1 120334Z 03007KT M07/M12 A3059 RMK A01 T10661117  RH  067%=      5-min Rain = 0
KEN1 120335Z 03007KT M07/M12 A3059 RMK A01 T10671117  RH  068%=      5-min Rain = 0
KEN1 120336Z 03006KT M07/M12 A3059 RMK A01 T10671116  RH  068%=      5-min Rain = 0
KEN1 120337Z 03008KT M07/M12 A3059 RMK A01 T10671116  RH  068%=      5-min Rain = 0
KEN1 120338Z 04006KT M07/M12 A3059 RMK A01 T10671116  RH  068%=      5-min Rain = 0
KEN1 120339Z 03006KT M07/M12 A3059 RMK A01 T10661115  RH  068%=      5-min Rain = 0
KEN1 120340Z 03006KT M07/M12 A3059 RMK A01 T10661115  RH  068%=      5-min Rain = 0
KEN1 120341Z 03006KT M07/M12 A3059 RMK A01 T10661116  RH  068%=      5-min Rain = 0
KEN1 120342Z 03006KT M07/M12 A3059 RMK A01 T10671116  RH  068%=      5-min Rain = 0
KEN1 120343Z 04006KT M07/M12 A3059 RMK A01 T10671116  RH  068%=      5-min Rain = 0
KEN1 120344Z 04005KT M07/M12 A3059 RMK A01 T10681116  RH  068%=      5-min Rain = 0
KEN1 120345Z 04005KT M07/M12 A3059 RMK A01 T10691117  RH  069%=      5-min Rain = 0
KEN1 120346Z 04006KT M07/M12 A3059 RMK A01 T10691116  RH  069%=      5-min Rain = 0
KEN1 120347Z 04006KT M07/M12 A3059 RMK A01 T10691117  RH  069%=      5-min Rain = 0
KEN1 120348Z 04006KT M07/M12 A3059 RMK A01 T10701117  RH  069%=      5-min Rain = 0
KEN1 120349Z 05005KT M07/M12 A3059 RMK A01 T10701117  RH  069%=      5-min Rain = 0
KEN1 120350Z 05006KT M07/M12 A3059 RMK A01 T10711117  RH  070%=      5-min Rain = 0
KEN1 120351Z 05005KT M07/M12 A3059 RMK A01 T10721117  RH  070%=      5-min Rain = 0
KEN1 120352Z 05005KT M07/M12 A3059 RMK A01 T10731117  RH  070%=      5-min Rain = 0
KEN1 120353Z 05004KT M07/M12 A3059 RMK A01 T10731117  RH  071%=      5-min Rain = 0
KEN1 120354Z 05004KT M07/M12 A3059 RMK A01 T10741118  RH  071%=      5-min Rain = 0
KEN1 120355Z 05004KT M07/M12 A3059 RMK A01 T10741118  RH  071%=      5-min Rain = 0
KEN1 120356Z 05004KT M07/M12 A3059 RMK A01 T10741117  RH  071%=      5-min Rain = 0
KEN1 120357Z 05003KT M07/M12 A3059 RMK A01 T10741117  RH  071%=      5-min Rain = 0
KEN1 120358Z 06003KT M07/M12 A3059 RMK A01 T10741117  RH  071%=      5-min Rain = 0
KEN1 120359Z 06003KT M07/M12 A3059 RMK A01 T10741117  RH  071%=      5-min Rain = 0
KEN1 120400Z 06004KT M07/M12 A3059 RMK A01 T10741117  RH  071%=      5-min Rain = 0
KEN1 120401Z 06004KT M07/M12 A3059 RMK A01 T10741118  RH  071%=      5-min Rain = 0
KEN1 120402Z 06004KT M07/M12 A3059 RMK A01 T10741118  RH  071%=      5-min Rain = 0
KEN1 120403Z 06004KT M07/M12 A3059 RMK A01 T10731118  RH  071%=      5-min Rain = 0
KEN1 120404Z 05004KT M07/M12 A3059 RMK A01 T10731118  RH  070%=      5-min Rain = 0
KEN1 120405Z 05004KT M07/M12 A3059 RMK A01 T10721119  RH  069%=      5-min Rain = 0
KEN1 120406Z 06004KT M07/M12 A3059 RMK A01 T10711119  RH  069%=      5-min Rain = 0
KEN1 120407Z 05005KT M07/M12 A306 RMK A01 T10711120  RH  068%=      5-min Rain = 0
KEN1 120408Z 05005KT M07/M12 A306 RMK A01 T10711120  RH  068%=      5-min Rain = 0
KEN1 120409Z 05005KT M07/M12 A306 RMK A01 T10711120  RH  068%=      5-min Rain = 0
KEN1 120410Z 04005KT M07/M12 A306 RMK A01 T10711120  RH  068%=      5-min Rain = 0
KEN1 120411Z 04005KT M07/M12 A306 RMK A01 T10721121  RH  068%=      5-min Rain = 0
KEN1 120412Z 04005KT M07/M12 A306 RMK A01 T10731121  RH  068%=      5-min Rain = 0
KEN1 120413Z 04005KT M07/M12 A306 RMK A01 T10731121  RH  069%=      5-min Rain = 0
KEN1 120414Z 04005KT M07/M12 A306 RMK A01 T10741121  RH  069%=      5-min Rain = 0
KEN1 120415Z 04006KT M08/M12 A3059 RMK A01 T10751121  RH  069%=      5-min Rain = 0
KEN1 120416Z 05006KT M08/M12 A3059 RMK A01 T10751121  RH  070%=      5-min Rain = 0
KEN1 120417Z 05006KT M08/M12 A3059 RMK A01 T10761121  RH  070%=      5-min Rain = 0
KEN1 120418Z 05006KT M08/M12 A3059 RMK A01 T10761122  RH  070%=      5-min Rain = 0
KEN1 120419Z 05006KT M08/M12 A3059 RMK A01 T10771122  RH  070%=      5-min Rain = 0
KEN1 120420Z 05006KT M08/M12 A3059 RMK A01 T10771122  RH  070%=      5-min Rain = 0
KEN1 120421Z 05005KT M08/M12 A3059 RMK A01 T10781122  RH  071%=      5-min Rain = 0
KEN1 120422Z 05005KT M08/M12 A3059 RMK A01 T10791122  RH  071%=      5-min Rain = 0
KEN1 120423Z 05005KT M08/M12 A3059 RMK A01 T10791121  RH  072%=      5-min Rain = 0
KEN1 120424Z 05005KT M08/M12 A3059 RMK A01 T10791121  RH  072%=      5-min Rain = 0
KEN1 120425Z 05005KT M08/M12 A3059 RMK A01 T10791121  RH  072%=      5-min Rain = 0
KEN1 120426Z 05005KT M08/M12 A3059 RMK A01 T10791121  RH  072%=      5-min Rain = 0
KEN1 120427Z 05005KT M08/M12 A3059 RMK A01 T10781121  RH  071%=      5-min Rain = 0
KEN1 120428Z 05005KT M08/M12 A3059 RMK A01 T10791121  RH  071%=      5-min Rain = 0
KEN1 120429Z 05005KT M08/M12 A3059 RMK A01 T10791122  RH  071%=      5-min Rain = 0
KEN1 120430Z 05005KT M08/M12 A3059 RMK A01 T10791122  RH  072%=      5-min Rain = 0
KEN1 120431Z 06005KT M08/M12 A3059 RMK A01 T10811122  RH  072%=      5-min Rain = 0
KEN1 120432Z 06005KT M08/M12 A3059 RMK A01 T10821123  RH  072%=      5-min Rain = 0
KEN1 120433Z 06005KT M08/M12 A3059 RMK A01 T10821122  RH  073%=      5-min Rain = 0
KEN1 120434Z 07005KT M08/M12 A3059 RMK A01 T10831123  RH  073%=      5-min Rain = 0
KEN1 120435Z 07005KT M08/M12 A3059 RMK A01 T10831123  RH  073%=      5-min Rain = 0
KEN1 120436Z 07005KT M08/M12 A3059 RMK A01 T10831122  RH  074%=      5-min Rain = 0
KEN1 120437Z 07004KT M08/M12 A3059 RMK A01 T10841122  RH  074%=      5-min Rain = 0
KEN1 120438Z 07004KT M08/M12 A3059 RMK A01 T10841122  RH  074%=      5-min Rain = 0
KEN1 120439Z 07003KT M08/M12 A3059 RMK A01 T10841122  RH  074%=      5-min Rain = 0
KEN1 120440Z 08003KT M08/M12 A3059 RMK A01 T10841122  RH  074%=      5-min Rain = 0
KEN1 120441Z 08003KT M09/M12 A3059 RMK A01 T10851123  RH  074%=      5-min Rain = 0
KEN1 120442Z 09002KT M09/M12 A3059 RMK A01 T10861123  RH  075%=      5-min Rain = 0
KEN1 120443Z 10002KT M09/M12 A3059 RMK A01 T10881124  RH  075%=      5-min Rain = 0
KEN1 120444Z 15002KT M09/M12 A3059 RMK A01 T10891124  RH  076%=      5-min Rain = 0
KEN1 120445Z 17003KT M09/M12 A3059 RMK A01 T10911123  RH  077%=      5-min Rain = 0
KEN1 120446Z 18003KT M09/M12 A3059 RMK A01 T10911122  RH  078%=      5-min Rain = 0
KEN1 120447Z 18003KT M09/M12 A3059 RMK A01 T10891121  RH  078%=      5-min Rain = 0
KEN1 120448Z 20003KT M09/M12 A3059 RMK A01 T10881120  RH  077%=      5-min Rain = 0
KEN1 120449Z 20003KT M09/M12 A3059 RMK A01 T10871120  RH  077%=      5-min Rain = 0
KEN1 120450Z 20003KT M09/M12 A3059 RMK A01 T10881121  RH  077%=      5-min Rain = 0
KEN1 120451Z 20003KT M09/M12 A3059 RMK A01 T10871120  RH  077%=      5-min Rain = 0
KEN1 120452Z 19003KT M09/M12 A3059 RMK A01 T10871120  RH  077%=      5-min Rain = 0
KEN1 120453Z 19002KT M09/M12 A3059 RMK A01 T10861120  RH  077%=      5-min Rain = 0
KEN1 120454Z 19002KT M09/M12 A3059 RMK A01 T10861120  RH  076%=      5-min Rain = 0
KEN1 120455Z 18002KT M09/M12 A3059 RMK A01 T10851119  RH  076%=      5-min Rain = 0
KEN1 120456Z 19002KT M09/M12 A3059 RMK A01 T10851120  RH  076%=      5-min Rain = 0
KEN1 120457Z 19002KT M09/M12 A306 RMK A01 T10851120  RH  076%=      5-min Rain = 0
KEN1 120458Z 20002KT M09/M12 A306 RMK A01 T10851119  RH  076%=      5-min Rain = 0
KEN1 120459Z 21002KT M09/M12 A306 RMK A01 T10851119  RH  076%=      5-min Rain = 0
KEN1 120500Z 22002KT M09/M12 A306 RMK A01 T10851119  RH  076%=      5-min Rain = 0
KEN1 120501Z 23003KT M09/M12 A306 RMK A01 T10851119  RH  076%=      5-min Rain = 0
KEN1 120502Z 24003KT M09/M12 A306 RMK A01 T10851120  RH  076%=      5-min Rain = 0
KEN1 120503Z 24003KT M09/M12 A306 RMK A01 T10851120  RH  076%=      5-min Rain = 0
KEN1 120504Z 25004KT M09/M12 A306 RMK A01 T10851121  RH  076%=      5-min Rain = 0
KEN1 120505Z 26004KT M09/M12 A306 RMK A01 T10861121  RH  076%=      5-min Rain = 0
KEN1 120506Z 27004KT M09/M12 A306 RMK A01 T10871121  RH  076%=      5-min Rain = 0
KEN1 120507Z 28005KT M09/M12 A306 RMK A01 T10881121  RH  077%=      5-min Rain = 0
KEN1 120508Z 28005KT M09/M12 A306 RMK A01 T10871120  RH  077%=      5-min Rain = 0
KEN1 120509Z 28005KT M09/M12 A306 RMK A01 T10851118  RH  077%=      5-min Rain = 0
KEN1 120510Z 28004KT M09/M12 A306 RMK A01 T10851119  RH  076%=      5-min Rain = 0
KEN1 120511Z 28004KT M09/M12 A306 RMK A01 T10851119  RH  076%=      5-min Rain = 0
KEN1 120512Z 28004KT M08/M12 A306 RMK A01 T10841118  RH  076%=      5-min Rain = 0
KEN1 120513Z 28004KT M08/M12 A306 RMK A01 T10841119  RH  076%=      5-min Rain = 0
KEN1 120514Z 28004KT M08/M12 A306 RMK A01 T10841119  RH  076%=      5-min Rain = 0
KEN1 120515Z 28004KT M08/M12 A306 RMK A01 T10841119  RH  076%=      5-min Rain = 0
KEN1 120516Z 28003KT M08/M12 A306 RMK A01 T10831118  RH  076%=      5-min Rain = 0
KEN1 120517Z 31004KT M08/M12 A306 RMK A01 T10811118  RH  075%=      5-min Rain = 0
KEN1 120518Z 30003KT M08/M12 A306 RMK A01 T10781117  RH  074%=      5-min Rain = 0
KEN1 120519Z 30003KT M08/M12 A306 RMK A01 T10761117  RH  072%=      5-min Rain = 0
KEN1 120520Z 32004KT M08/M12 A3059 RMK A01 T10761119  RH  071%=      5-min Rain = 0
KEN1 120521Z 32003KT M08/M12 A3059 RMK A01 T10781121  RH  071%=      5-min Rain = 0
KEN1 120522Z 32003KT M08/M12 A3059 RMK A01 T10791121  RH  072%=      5-min Rain = 0
KEN1 120523Z 31003KT M08/M12 A3059 RMK A01 T10791121  RH  072%=      5-min Rain = 0
KEN1 120524Z 31003KT M08/M12 A3059 RMK A01 T10781121  RH  071%=      5-min Rain = 0
KEN1 120525Z 32003KT M08/M12 A3059 RMK A01 T10781121  RH  071%=      5-min Rain = 0
KEN1 120526Z 33004KT M08/M12 A3059 RMK A01 T10771121  RH  071%=      5-min Rain = 0
KEN1 120527Z 34004KT M08/M12 A3059 RMK A01 T10781122  RH  071%=      5-min Rain = 0
KEN1 120528Z 35004KT M08/M12 A3059 RMK A01 T10791123  RH  071%=      5-min Rain = 0
KEN1 120529Z 35004KT M08/M12 A3059 RMK A01 T10791123  RH  071%=      5-min Rain = 0
KEN1 120530Z 34004KT M08/M12 A3059 RMK A01 T10801124  RH  071%=      5-min Rain = 0
KEN1 120531Z 35004KT M08/M12 A3059 RMK A01 T10811124  RH  071%=      5-min Rain = 0
KEN1 120532Z 35003KT M08/M12 A3059 RMK A01 T10811124  RH  071%=      5-min Rain = 0
KEN1 120533Z 33003KT M08/M12 A306 RMK A01 T10821124  RH  071%=      5-min Rain = 0
KEN1 120534Z 34003KT M08/M13 A306 RMK A01 T10821125  RH  071%=      5-min Rain = 0
KEN1 120535Z 34003KT M08/M13 A306 RMK A01 T10811125  RH  071%=      5-min Rain = 0
KEN1 120536Z 32003KT M08/M13 A306 RMK A01 T10811125  RH  071%=      5-min Rain = 0
KEN1 120537Z 31003KT M08/M13 A306 RMK A01 T10811125  RH  071%=      5-min Rain = 0
KEN1 120538Z 33003KT M08/M13 A306 RMK A01 T10811125  RH  071%=      5-min Rain = 0
KEN1 120539Z 33004KT M08/M13 A306 RMK A01 T10811125  RH  071%=      5-min Rain = 0
KEN1 120540Z 33004KT M08/M13 A306 RMK A01 T10801125  RH  070%=      5-min Rain = 0
KEN1 120541Z 33004KT M08/M13 A306 RMK A01 T10791125  RH  070%=      5-min Rain = 0
KEN1 120542Z 33005KT M08/M13 A306 RMK A01 T10791125  RH  070%=      5-min Rain = 0
KEN1 120543Z 33005KT M08/M13 A306 RMK A01 T10791125  RH  070%=      5-min Rain = 0
KEN1 120544Z 33005KT M08/M13 A306 RMK A01 T10801126  RH  070%=      5-min Rain = 0
KEN1 120545Z 33005KT M08/M13 A306 RMK A01 T10811126  RH  070%=      5-min Rain = 0
KEN1 120546Z 33005KT M08/M13 A306 RMK A01 T10821126  RH  071%=      5-min Rain = 0
KEN1 120547Z 33004KT M08/M13 A306 RMK A01 T10831125  RH  071%=      5-min Rain = 0
KEN1 120548Z 32004KT M08/M13 A306 RMK A01 T10831125  RH  072%=      5-min Rain = 0
KEN1 120549Z 32004KT M08/M13 A306 RMK A01 T10831125  RH  072%=      5-min Rain = 0
KEN1 120550Z 32004KT M08/M13 A306 RMK A01 T10831125  RH  072%=      5-min Rain = 0
KEN1 120551Z 32004KT M08/M13 A306 RMK A01 T10831125  RH  072%=      5-min Rain = 0
KEN1 120552Z 32004KT M08/M13 A306 RMK A01 T10821125  RH  071%=      5-min Rain = 0
KEN1 120553Z 33004KT M08/M13 A306 RMK A01 T10821125  RH  071%=      5-min Rain = 0
KEN1 120554Z 33004KT M08/M13 A306 RMK A01 T10831125  RH  071%=      5-min Rain = 0
KEN1 120555Z 33004KT M08/M13 A306 RMK A01 T10831126  RH  071%=      5-min Rain = 0
KEN1 120556Z 34004KT M08/M13 A306 RMK A01 T10841126  RH  071%=      5-min Rain = 0
KEN1 120557Z 34005KT M09/M13 A306 RMK A01 T10851127  RH  072%=      5-min Rain = 0
KEN1 120558Z 34004KT M09/M13 A306 RMK A01 T10851127  RH  072%=      5-min Rain = 0
KEN1 120559Z 34004KT M09/M13 A306 RMK A01 T10861127  RH  072%=      5-min Rain = 0

Page generated in 0.0781 seconds.